Darstellungsparameter: Aktuell verwendete Einstellungen:
Skalierung der Graphiken ... ?
xyx+y,   Skalierungsfaktor:      Skalierung: Modus: x, Faktor: 1
Darstellungszeitraum ... ?
Vom - - bis: - -   Zeitraum: 24.01.2022 - 29.01.2022
Min/Max/Avg-Anzeige ... ?
Zeige MMA aktuell
Zeige MMA Monat
Zeige MMA alles
Zeige --A aktuell
Zeige --A Monat
Zeige --A alles
Keine MMA-Anzeige
MMA:
Keine MMA-Graphiken
MMA-Basis: 24.01.2022 - 29.01.2022
Quicknavigation für Darstellung... ?
Tage:      1T, 2T, 3T, 5T -1T -2T -3T -5T +1T +2T +3T +5T
Wochen: 1W, 2W, 3W -1W -2W -3W +1W +2W +3W
Monate: 1M, 3M, 6M -1M -3M -6M +1M +3M +6M
Jahre:    1J, 3J, 5J, 10J -1J -3J -5J -10J +1J +3J +5J +10J
Nutze für die Darstellung ... ?
Originaldaten oder Mittelwerte auf ...
Stundenbasis Tagesbasis Wochenbasis
Monatsbasis Jahresbasis      Datenbasis: Original-Daten
Darstellen als:
Statistik (Auto) Statistik J:M      Darstellung:
Zur Graphik,    zurück zur Übersicht aller Sensoren.
 
Tabellarische Datenbersicht: ?
 
Sensor: Nr:Datum:Temp:Feuchte:Taupunkt:
Aussen-T/F 1 24-01-2022 00:00:00 3.9 C 92 % 2.72 C
2 24-01-2022 00:05:00 4 C 92 % 2.82 C
3 24-01-2022 00:10:00 4 C 92 % 2.82 C
4 24-01-2022 00:15:00 4 C 92 % 2.82 C
5 24-01-2022 00:20:00 3.9 C 92 % 2.72 C
6 24-01-2022 00:25:00 3.9 C 92 % 2.72 C
7 24-01-2022 00:30:00 3.9 C 92 % 2.72 C
8 24-01-2022 00:35:00 3.9 C 92 % 2.72 C
9 24-01-2022 00:40:00 3.9 C 92 % 2.72 C
10 24-01-2022 00:45:00 3.9 C 92 % 2.72 C
11 24-01-2022 00:50:00 3.9 C 92 % 2.72 C
12 24-01-2022 00:55:00 3.9 C 92 % 2.72 C
13 24-01-2022 01:00:00 3.9 C 92 % 2.72 C
14 24-01-2022 01:05:00 3.9 C 92 % 2.72 C
15 24-01-2022 01:10:00 3.9 C 92 % 2.72 C
16 24-01-2022 01:15:00 3.9 C 92 % 2.72 C
17 24-01-2022 01:20:00 3.9 C 92 % 2.72 C
18 24-01-2022 01:25:00 3.9 C 92 % 2.72 C
19 24-01-2022 01:30:00 3.9 C 92 % 2.72 C
20 24-01-2022 01:35:00 3.9 C 92 % 2.72 C
21 24-01-2022 01:40:00 3.9 C 92 % 2.72 C
22 24-01-2022 01:45:00 3.9 C 92 % 2.72 C
23 24-01-2022 01:50:00 3.9 C 92 % 2.72 C
24 24-01-2022 01:55:00 3.9 C 92 % 2.72 C
25 24-01-2022 02:00:00 4 C 92 % 2.82 C
Sensor: Nr:Datum:Temp:Feuchte:Taupunkt:
Aussen-T/F 26 24-01-2022 02:05:00 4 C 92 % 2.82 C
27 24-01-2022 02:10:00 4 C 92 % 2.82 C
28 24-01-2022 02:15:00 4 C 92 % 2.82 C
29 24-01-2022 02:20:00 4 C 92 % 2.82 C
30 24-01-2022 02:25:00 4 C 92 % 2.82 C
31 24-01-2022 02:30:00 4 C 92 % 2.82 C
32 24-01-2022 02:35:00 4 C 91 % 2.67 C
33 24-01-2022 02:40:00 4 C 91 % 2.67 C
34 24-01-2022 02:45:00 4.1 C 92 % 2.92 C
35 24-01-2022 02:50:00 4.1 C 92 % 2.92 C
36 24-01-2022 02:55:00 4.1 C 91 % 2.77 C
37 24-01-2022 03:00:00 4.1 C 91 % 2.77 C
38 24-01-2022 03:05:00 4.1 C 91 % 2.77 C
39 24-01-2022 03:10:00 4.1 C 91 % 2.77 C
40 24-01-2022 03:15:00 4.1 C 91 % 2.77 C
41 24-01-2022 03:20:00 4.1 C 91 % 2.77 C
42 24-01-2022 03:25:00 3.9 C 90 % 2.41 C
43 24-01-2022 03:30:00 3.9 C 90 % 2.41 C
44 24-01-2022 03:35:00 3.8 C 90 % 2.31 C
45 24-01-2022 03:40:00 3.7 C 89 % 2.06 C
46 24-01-2022 03:45:00 3.6 C 89 % 1.96 C
47 24-01-2022 03:50:00 3.4 C 89 % 1.76 C
48 24-01-2022 03:55:00 3.2 C 89 % 1.57 C
49 24-01-2022 04:00:00 2.9 C 89 % 1.27 C
50 24-01-2022 04:05:00 2.7 C 89 % 1.07 C
Sensor: Nr:Datum:Temp:Feuchte:Taupunkt:
Aussen-T/F 51 24-01-2022 04:10:00 2.5 C 90 % 1.03 C
52 24-01-2022 04:15:00 2.3 C 90 % 0.83 C
53 24-01-2022 04:20:00 2.1 C 90 % 0.64 C
54 24-01-2022 04:25:00 1.9 C 90 % 0.44 C
55 24-01-2022 04:30:00 1.8 C 91 % 0.49 C
56 24-01-2022 04:35:00 1.7 C 91 % 0.39 C
57 24-01-2022 04:40:00 1.6 C 91 % 0.29 C
58 24-01-2022 04:45:00 1.4 C 91 % 0.1 C
59 24-01-2022 04:50:00 1.3 C 92 % 0.15 C
60 24-01-2022 04:55:00 1.2 C 92 % 0.05 C
61 24-01-2022 05:00:00 1.1 C 92 % -0.05 C
62 24-01-2022 05:05:00 0.9 C 92 % -0.25 C
63 24-01-2022 05:10:00 0.8 C 92 % -0.35 C
64 24-01-2022 05:15:00 0.7 C 92 % -0.45 C
65 24-01-2022 05:20:00 0.7 C 92 % -0.45 C
66 24-01-2022 05:25:00 0.6 C 93 % -0.4 C
67 24-01-2022 05:30:00 0.5 C 93 % -0.5 C
68 24-01-2022 05:35:00 0.4 C 93 % -0.6 C
69 24-01-2022 05:40:00 0.4 C 93 % -0.6 C
70 24-01-2022 05:45:00 0.3 C 93 % -0.7 C
71 24-01-2022 05:50:00 0.2 C 93 % -0.79 C
72 24-01-2022 05:55:00 0.2 C 93 % -0.79 C
73 24-01-2022 06:00:00 0.1 C 93 % -0.89 C
74 24-01-2022 06:05:00 0.1 C 93 % -0.89 C
75 24-01-2022 06:10:00 0 C 93 % -0.99 C
Sensor: Nr:Datum:Temp:Feuchte:Taupunkt:
Aussen-T/F 76 24-01-2022 06:15:00 -0.1 C 93 % -1.09 C
77 24-01-2022 06:20:00 -0.1 C 94 % -0.95 C
78 24-01-2022 06:25:00 -0.2 C 94 % -1.05 C
79 24-01-2022 06:30:00 -0.2 C 94 % -1.05 C
80 24-01-2022 06:35:00 -0.2 C 94 % -1.05 C
81 24-01-2022 06:40:00 -0.2 C 94 % -1.05 C
82 24-01-2022 06:45:00 -0.2 C 94 % -1.05 C
83 24-01-2022 06:50:00 -0.2 C 94 % -1.05 C
84 24-01-2022 06:55:00 -0.2 C 94 % -1.05 C
85 24-01-2022 07:00:00 -0.1 C 94 % -0.95 C
86 24-01-2022 07:05:00 -0.1 C 95 % -0.8 C
87 24-01-2022 07:10:00 0.1 C 95 % -0.6 C
88 24-01-2022 07:15:00 0.1 C 95 % -0.6 C
89 24-01-2022 07:20:00 0.2 C 95 % -0.5 C
90 24-01-2022 07:25:00 0.2 C 95 % -0.5 C
91 24-01-2022 07:30:00 0.1 C 95 % -0.6 C
92 24-01-2022 07:35:00 0.1 C 95 % -0.6 C
93 24-01-2022 07:40:00 -0.1 C 94 % -0.95 C
94 24-01-2022 07:45:00 -0.2 C 94 % -1.05 C
95 24-01-2022 07:50:00 -0.3 C 94 % -1.15 C
96 24-01-2022 07:55:00 -0.3 C 94 % -1.15 C
97 24-01-2022 08:00:00 -0.4 C 95 % -1.1 C
98 24-01-2022 08:05:00 -0.4 C 94 % -1.25 C
99 24-01-2022 08:10:00 -0.4 C 95 % -1.1 C
100 24-01-2022 08:15:00 -0.4 C 95 % -1.1 C
Sensor: Nr:Datum:Temp:Feuchte:Taupunkt:
Aussen-T/F 101 24-01-2022 08:20:00 -0.4 C 95 % -1.1 C
102 24-01-2022 08:25:00 -0.3 C 95 % -1 C
103 24-01-2022 08:30:00 -0.2 C 95 % -0.9 C
104 24-01-2022 08:35:00 -0.1 C 95 % -0.8 C
105 24-01-2022 08:40:00 0 C 95 % -0.7 C
106 24-01-2022 08:45:00 0.1 C 95 % -0.6 C
107 24-01-2022 08:50:00 0.1 C 95 % -0.6 C
108 24-01-2022 08:55:00 0.2 C 95 % -0.5 C
109 24-01-2022 09:00:00 0.2 C 95 % -0.5 C
110 24-01-2022 09:05:00 0.3 C 96 % -0.26 C
111 24-01-2022 09:10:00 0.3 C 96 % -0.26 C
112 24-01-2022 09:15:00 0.4 C 96 % -0.16 C
113 24-01-2022 09:20:00 0.5 C 96 % -0.06 C
114 24-01-2022 09:25:00 0.6 C 96 % 0.04 C
115 24-01-2022 09:30:00 0.7 C 96 % 0.14 C
116 24-01-2022 09:35:00 0.8 C 96 % 0.24 C
117 24-01-2022 09:40:00 0.9 C 96 % 0.34 C
118 24-01-2022 09:45:00 1 C 96 % 0.44 C
119 24-01-2022 09:50:00 1.1 C 96 % 0.54 C
120 24-01-2022 09:55:00 1.2 C 96 % 0.63 C
121 24-01-2022 10:00:00 1.2 C 96 % 0.63 C
122 24-01-2022 10:05:00 1.3 C 96 % 0.73 C
123 24-01-2022 10:10:00 1.4 C 96 % 0.83 C
124 24-01-2022 10:15:00 1.4 C 96 % 0.83 C
125 24-01-2022 10:20:00 1.5 C 96 % 0.93 C
Sensor: Nr:Datum:Temp:Feuchte:Taupunkt:
Aussen-T/F 126 24-01-2022 10:25:00 1.6 C 96 % 1.03 C
127 24-01-2022 10:30:00 1.7 C 96 % 1.13 C
128 24-01-2022 10:35:00 1.8 C 96 % 1.23 C
129 24-01-2022 10:40:00 1.8 C 96 % 1.23 C
130 24-01-2022 10:45:00 1.9 C 96 % 1.33 C
131 24-01-2022 10:50:00 2 C 96 % 1.43 C
132 24-01-2022 10:55:00 2.1 C 95 % 1.38 C
133 24-01-2022 11:00:00 2.2 C 96 % 1.63 C
134 24-01-2022 11:05:00 2.3 C 95 % 1.58 C
135 24-01-2022 11:10:00 2.3 C 95 % 1.58 C
136 24-01-2022 11:15:00 2.4 C 95 % 1.68 C
137 24-01-2022 11:20:00 2.6 C 95 % 1.88 C
138 24-01-2022 11:25:00 2.7 C 95 % 1.98 C
139 24-01-2022 11:30:00 2.8 C 96 % 2.23 C
140 24-01-2022 11:35:00 3 C 95 % 2.28 C
141 24-01-2022 11:40:00 3.2 C 95 % 2.48 C
142 24-01-2022 11:45:00 3.3 C 95 % 2.58 C
143 24-01-2022 11:50:00 3.4 C 95 % 2.68 C
144 24-01-2022 11:55:00 3.5 C 95 % 2.78 C
145 24-01-2022 12:00:00 3.6 C 95 % 2.88 C
146 24-01-2022 12:05:00 3.8 C 94 % 2.93 C
147 24-01-2022 12:10:00 3.8 C 94 % 2.93 C
148 24-01-2022 12:15:00 4 C 94 % 3.12 C
149 24-01-2022 12:20:00 4.1 C 93 % 3.07 C
150 24-01-2022 12:25:00 4.2 C 92 % 3.02 C
Sensor: Nr:Datum:Temp:Feuchte:Taupunkt:
Aussen-T/F 151 24-01-2022 12:30:00 4.3 C 92 % 3.12 C
152 24-01-2022 12:35:00 4.4 C 91 % 3.06 C
153 24-01-2022 12:40:00 4.6 C 90 % 3.1 C
154 24-01-2022 12:45:00 4.7 C 89 % 3.05 C
155 24-01-2022 12:50:00 4.8 C 88 % 2.99 C
156 24-01-2022 12:55:00 4.9 C 88 % 3.08 C
157 24-01-2022 13:00:00 5 C 87 % 3.02 C
158 24-01-2022 13:05:00 5.1 C 87 % 3.12 C
159 24-01-2022 13:10:00 5.1 C 87 % 3.12 C
160 24-01-2022 13:15:00 5.2 C 86 % 3.05 C
161 24-01-2022 13:20:00 5.2 C 86 % 3.05 C
162 24-01-2022 13:25:00 5.3 C 86 % 3.15 C
163 24-01-2022 13:30:00 5.2 C 85 % 2.89 C
164 24-01-2022 13:35:00 5.2 C 85 % 2.89 C
165 24-01-2022 13:40:00 5.2 C 85 % 2.89 C
166 24-01-2022 13:45:00 5.2 C 85 % 2.89 C
167 24-01-2022 13:50:00 5.3 C 86 % 3.15 C
168 24-01-2022 13:55:00 5.3 C 85 % 2.99 C
169 24-01-2022 14:00:00 5.3 C 85 % 2.99 C
170 24-01-2022 14:05:00 5.3 C 85 % 2.99 C
171 24-01-2022 14:10:00 5.3 C 85 % 2.99 C
172 24-01-2022 14:15:00 5.4 C 85 % 3.09 C
173 24-01-2022 14:20:00 5.4 C 85 % 3.09 C
174 24-01-2022 14:25:00 5.4 C 85 % 3.09 C
175 24-01-2022 14:30:00 5.5 C 85 % 3.18 C
Sensor: Nr:Datum:Temp:Feuchte:Taupunkt:
Aussen-T/F 176 24-01-2022 14:35:00 5.4 C 85 % 3.09 C
177 24-01-2022 14:40:00 5.4 C 84 % 2.92 C
178 24-01-2022 14:45:00 5.4 C 85 % 3.09 C
179 24-01-2022 14:50:00 5.4 C 85 % 3.09 C
180 24-01-2022 14:55:00 5.5 C 85 % 3.18 C
181 24-01-2022 15:00:00 5.5 C 85 % 3.18 C
182 24-01-2022 15:05:00 5.5 C 85 % 3.18 C
183 24-01-2022 15:10:00 5.5 C 85 % 3.18 C
184 24-01-2022 15:15:00 5.4 C 84 % 2.92 C
185 24-01-2022 15:20:00 5.4 C 85 % 3.09 C
186 24-01-2022 15:25:00 5.4 C 85 % 3.09 C
187 24-01-2022 15:30:00 5.4 C 85 % 3.09 C
188 24-01-2022 15:35:00 5.4 C 84 % 2.92 C
189 24-01-2022 15:40:00 5.3 C 84 % 2.82 C
190 24-01-2022 15:45:00 5.3 C 84 % 2.82 C
191 24-01-2022 15:50:00 5.3 C 85 % 2.99 C
192 24-01-2022 15:55:00 5.3 C 85 % 2.99 C
193 24-01-2022 16:00:00 5.3 C 85 % 2.99 C
194 24-01-2022 16:05:00 5.3 C 85 % 2.99 C
195 24-01-2022 16:10:00 5.3 C 86 % 3.15 C
196 24-01-2022 16:15:00 5.3 C 85 % 2.99 C
197 24-01-2022 16:20:00 5.3 C 85 % 2.99 C
198 24-01-2022 16:25:00 5.3 C 85 % 2.99 C
199 24-01-2022 16:30:00 5.3 C 85 % 2.99 C
200 24-01-2022 16:35:00 5.2 C 85 % 2.89 C
Sensor: Nr:Datum:Temp:Feuchte:Taupunkt:
Aussen-T/F 201 24-01-2022 16:40:00 5.2 C 85 % 2.89 C
202 24-01-2022 16:45:00 5.1 C 85 % 2.79 C
203 24-01-2022 16:50:00 5.1 C 85 % 2.79 C
204 24-01-2022 16:55:00 5.1 C 86 % 2.96 C
205 24-01-2022 17:00:00 5.1 C 86 % 2.96 C
206 24-01-2022 17:05:00 5 C 86 % 2.86 C
207 24-01-2022 17:10:00 4.9 C 86 % 2.76 C
208 24-01-2022 17:15:00 4.9 C 86 % 2.76 C
209 24-01-2022 17:20:00 4.9 C 86 % 2.76 C
210 24-01-2022 17:25:00 4.8 C 86 % 2.66 C
211 24-01-2022 17:30:00 4.8 C 86 % 2.66 C
212 24-01-2022 17:35:00 4.8 C 86 % 2.66 C
213 24-01-2022 17:40:00 4.8 C 86 % 2.66 C
214 24-01-2022 17:45:00 4.8 C 87 % 2.82 C
215 24-01-2022 17:50:00 4.7 C 87 % 2.73 C
216 24-01-2022 17:55:00 4.7 C 87 % 2.73 C
217 24-01-2022 18:00:00 4.7 C 87 % 2.73 C
218 24-01-2022 18:05:00 4.6 C 87 % 2.63 C
219 24-01-2022 18:10:00 4.6 C 87 % 2.63 C
220 24-01-2022 18:15:00 4.5 C 88 % 2.69 C
221 24-01-2022 18:20:00 4.5 C 88 % 2.69 C
222 24-01-2022 18:25:00 4.4 C 88 % 2.59 C
223 24-01-2022 18:30:00 4.4 C 88 % 2.59 C
224 24-01-2022 18:35:00 4.4 C 88 % 2.59 C
225 24-01-2022 18:40:00 4.3 C 88 % 2.49 C
Sensor: Nr:Datum:Temp:Feuchte:Taupunkt:
Aussen-T/F 226 24-01-2022 18:45:00 4.3 C 88 % 2.49 C
227 24-01-2022 18:50:00 4.3 C 88 % 2.49 C
228 24-01-2022 18:55:00 4.3 C 88 % 2.49 C
229 24-01-2022 19:00:00 4.3 C 88 % 2.49 C
230 24-01-2022 19:05:00 4.3 C 88 % 2.49 C
231 24-01-2022 19:10:00 4.3 C 88 % 2.49 C
232 24-01-2022 19:15:00 4.3 C 88 % 2.49 C
233 24-01-2022 19:20:00 4.3 C 88 % 2.49 C
234 24-01-2022 19:25:00 4.3 C 88 % 2.49 C
235 24-01-2022 19:30:00 4.3 C 88 % 2.49 C
236 24-01-2022 19:35:00 4.3 C 88 % 2.49 C
237 24-01-2022 19:40:00 4.2 C 88 % 2.39 C
238 24-01-2022 19:45:00 4.2 C 88 % 2.39 C
239 24-01-2022 19:50:00 4.2 C 88 % 2.39 C
240 24-01-2022 19:55:00 4.2 C 88 % 2.39 C
241 24-01-2022 20:00:00 4.2 C 88 % 2.39 C
242 24-01-2022 20:05:00 4.2 C 88 % 2.39 C
243 24-01-2022 20:10:00 4.2 C 88 % 2.39 C
244 24-01-2022 20:15:00 4.2 C 88 % 2.39 C
245 24-01-2022 20:20:00 4.2 C 88 % 2.39 C
246 24-01-2022 20:25:00 4.2 C 88 % 2.39 C
247 24-01-2022 20:30:00 4.2 C 88 % 2.39 C
248 24-01-2022 20:35:00 4.1 C 88 % 2.3 C
249 24-01-2022 20:40:00 4.1 C 88 % 2.3 C
250 24-01-2022 20:45:00 4.1 C 88 % 2.3 C
Sensor: Nr:Datum:Temp:Feuchte:Taupunkt:
Aussen-T/F 251 24-01-2022 20:50:00 4.1 C 88 % 2.3 C
252 24-01-2022 20:55:00 4.1 C 88 % 2.3 C
253 24-01-2022 21:00:00 4 C 89 % 2.36 C
254 24-01-2022 21:05:00 4 C 89 % 2.36 C
255 24-01-2022 21:10:00 3.9 C 89 % 2.26 C
256 24-01-2022 21:15:00 3.9 C 89 % 2.26 C
257 24-01-2022 21:20:00 3.8 C 89 % 2.16 C
258 24-01-2022 21:25:00 3.8 C 89 % 2.16 C
259 24-01-2022 21:30:00 3.8 C 90 % 2.31 C
260 24-01-2022 21:35:00 3.7 C 90 % 2.22 C
261 24-01-2022 21:40:00 3.7 C 90 % 2.22 C
262 24-01-2022 21:45:00 3.7 C 90 % 2.22 C
263 24-01-2022 21:50:00 3.6 C 90 % 2.12 C
264 24-01-2022 21:55:00 3.6 C 90 % 2.12 C
265 24-01-2022 22:00:00 3.5 C 90 % 2.02 C
266 24-01-2022 22:05:00 3.4 C 90 % 1.92 C
267 24-01-2022 22:10:00 3.4 C 91 % 2.07 C
268 24-01-2022 22:15:00 3.3 C 90 % 1.82 C
269 24-01-2022 22:20:00 3.3 C 91 % 1.98 C
270 24-01-2022 22:25:00 3.3 C 91 % 1.98 C
271 24-01-2022 22:30:00 3.2 C 91 % 1.88 C
272 24-01-2022 22:35:00 3.2 C 91 % 1.88 C
273 24-01-2022 22:40:00 3.2 C 91 % 1.88 C
274 24-01-2022 22:45:00 3.1 C 91 % 1.78 C
275 24-01-2022 22:50:00 3.1 C 91 % 1.78 C
Sensor: Nr:Datum:Temp:Feuchte:Taupunkt:
Aussen-T/F 276 24-01-2022 22:55:00 3.1 C 91 % 1.78 C
277 24-01-2022 23:00:00 3 C 91 % 1.68 C
278 24-01-2022 23:05:00 2.9 C 91 % 1.58 C
279 24-01-2022 23:10:00 2.9 C 92 % 1.73 C
280 24-01-2022 23:15:00 2.9 C 92 % 1.73 C
281 24-01-2022 23:20:00 2.8 C 92 % 1.63 C
282 24-01-2022 23:25:00 2.8 C 92 % 1.63 C
283 24-01-2022 23:30:00 2.8 C 92 % 1.63 C
284 24-01-2022 23:35:00 2.8 C 92 % 1.63 C
285 24-01-2022 23:40:00 2.8 C 92 % 1.63 C
286 24-01-2022 23:45:00 2.8 C 92 % 1.63 C
287 24-01-2022 23:50:00 2.8 C 92 % 1.63 C
288 24-01-2022 23:55:00 2.8 C 92 % 1.63 C
289 25-01-2022 00:00:00 2.8 C 92 % 1.63 C
290 25-01-2022 00:05:00 2.8 C 93 % 1.78 C
291 25-01-2022 00:10:00 2.8 C 93 % 1.78 C
292 25-01-2022 00:15:00 2.8 C 93 % 1.78 C
293 25-01-2022 00:20:00 2.8 C 93 % 1.78 C
294 25-01-2022 00:25:00 2.8 C 93 % 1.78 C
295 25-01-2022 00:30:00 2.8 C 93 % 1.78 C
296 25-01-2022 00:35:00 2.8 C 93 % 1.78 C
297 25-01-2022 00:40:00 2.7 C 93 % 1.68 C
298 25-01-2022 00:45:00 2.7 C 93 % 1.68 C
299 25-01-2022 00:50:00 2.7 C 93 % 1.68 C
300 25-01-2022 00:55:00 2.7 C 93 % 1.68 C
Sensor: Nr:Datum:Temp:Feuchte:Taupunkt:
Aussen-T/F 301 25-01-2022 01:00:00 2.7 C 93 % 1.68 C
302 25-01-2022 01:05:00 2.7 C 93 % 1.68 C
303 25-01-2022 01:10:00 2.7 C 93 % 1.68 C
304 25-01-2022 01:15:00 2.7 C 93 % 1.68 C
305 25-01-2022 01:20:00 2.7 C 93 % 1.68 C
306 25-01-2022 01:25:00 2.7 C 93 % 1.68 C
307 25-01-2022 01:30:00 2.7 C 93 % 1.68 C
308 25-01-2022 01:35:00 2.7 C 93 % 1.68 C
309 25-01-2022 01:40:00 2.8 C 93 % 1.78 C
310 25-01-2022 01:45:00 2.8 C 93 % 1.78 C
311 25-01-2022 01:50:00 2.8 C 93 % 1.78 C
312 25-01-2022 01:55:00 2.8 C 94 % 1.93 C
313 25-01-2022 02:00:00 2.8 C 93 % 1.78 C
314 25-01-2022 02:05:00 2.8 C 94 % 1.93 C
315 25-01-2022 02:10:00 2.8 C 94 % 1.93 C
316 25-01-2022 02:15:00 2.9 C 94 % 2.03 C
317 25-01-2022 02:20:00 2.9 C 93 % 1.88 C
318 25-01-2022 02:25:00 2.9 C 93 % 1.88 C
319 25-01-2022 02:30:00 3 C 93 % 1.98 C
320 25-01-2022 02:35:00 3.1 C 93 % 2.08 C
321 25-01-2022 02:40:00 3 C 93 % 1.98 C
322 25-01-2022 02:45:00 3.1 C 93 % 2.08 C
323 25-01-2022 02:50:00 3.1 C 93 % 2.08 C
324 25-01-2022 02:55:00 3.1 C 93 % 2.08 C
325 25-01-2022 03:00:00 3.1 C 93 % 2.08 C
Sensor: Nr:Datum:Temp:Feuchte:Taupunkt:
Aussen-T/F 326 25-01-2022 03:05:00 3.1 C 92 % 1.93 C
327 25-01-2022 03:10:00 3.1 C 92 % 1.93 C
328 25-01-2022 03:15:00 3.1 C 92 % 1.93 C
329 25-01-2022 03:20:00 3.1 C 92 % 1.93 C
330 25-01-2022 03:25:00 3.1 C 92 % 1.93 C
331 25-01-2022 03:30:00 3.1 C 92 % 1.93 C
332 25-01-2022 03:35:00 3.1 C 92 % 1.93 C
333 25-01-2022 03:40:00 3.1 C 92 % 1.93 C
334 25-01-2022 03:45:00 3 C 92 % 1.83 C
335 25-01-2022 03:50:00 3 C 92 % 1.83 C
336 25-01-2022 03:55:00 3 C 92 % 1.83 C
337 25-01-2022 04:00:00 3 C 92 % 1.83 C
338 25-01-2022 04:05:00 3 C 92 % 1.83 C
339 25-01-2022 04:10:00 3 C 92 % 1.83 C
340 25-01-2022 04:15:00 3 C 92 % 1.83 C
341 25-01-2022 04:20:00 3 C 92 % 1.83 C
342 25-01-2022 04:25:00 3 C 92 % 1.83 C
343 25-01-2022 04:30:00 3 C 92 % 1.83 C
344 25-01-2022 04:35:00 3 C 92 % 1.83 C
345 25-01-2022 04:40:00 3 C 92 % 1.83 C
346 25-01-2022 04:45:00 3 C 92 % 1.83 C
347 25-01-2022 04:50:00 2.9 C 92 % 1.73 C
348 25-01-2022 04:55:00 2.9 C 92 % 1.73 C
349 25-01-2022 05:00:00 2.9 C 92 % 1.73 C
350 25-01-2022 05:05:00 2.9 C 92 % 1.73 C
Sensor: Nr:Datum:Temp:Feuchte:Taupunkt:
Aussen-T/F 351 25-01-2022 05:10:00 2.9 C 92 % 1.73 C
352 25-01-2022 05:15:00 2.9 C 92 % 1.73 C
353 25-01-2022 05:20:00 2.9 C 92 % 1.73 C
354 25-01-2022 05:25:00 2.8 C 92 % 1.63 C
355 25-01-2022 05:30:00 2.8 C 92 % 1.63 C
356 25-01-2022 05:35:00 2.8 C 92 % 1.63 C
357 25-01-2022 05:40:00 2.8 C 92 % 1.63 C
358 25-01-2022 05:45:00 2.8 C 92 % 1.63 C
359 25-01-2022 05:50:00 2.8 C 92 % 1.63 C
360 25-01-2022 05:55:00 2.7 C 92 % 1.53 C
361 25-01-2022 06:00:00 2.7 C 92 % 1.53 C
362 25-01-2022 06:05:00 2.7 C 92 % 1.53 C
363 25-01-2022 06:10:00 2.6 C 92 % 1.43 C
364 25-01-2022 06:15:00 2.6 C 92 % 1.43 C
365 25-01-2022 06:20:00 2.6 C 92 % 1.43 C
366 25-01-2022 06:25:00 2.6 C 93 % 1.59 C
367 25-01-2022 06:30:00 2.5 C 92 % 1.34 C
368 25-01-2022 06:35:00 2.5 C 93 % 1.49 C
369 25-01-2022 06:40:00 2.5 C 93 % 1.49 C
370 25-01-2022 06:45:00 2.4 C 93 % 1.39 C
371 25-01-2022 06:50:00 2.4 C 93 % 1.39 C
372 25-01-2022 06:55:00 2.3 C 93 % 1.29 C
373 25-01-2022 07:00:00 2.3 C 93 % 1.29 C
374 25-01-2022 07:05:00 2.3 C 93 % 1.29 C
375 25-01-2022 07:10:00 2.3 C 93 % 1.29 C
Sensor: Nr:Datum:Temp:Feuchte:Taupunkt:
Aussen-T/F 376 25-01-2022 07:15:00 2.2 C 93 % 1.19 C
377 25-01-2022 07:20:00 2.2 C 93 % 1.19 C
378 25-01-2022 07:25:00 2.2 C 93 % 1.19 C
379 25-01-2022 07:30:00 2.2 C 93 % 1.19 C
380 25-01-2022 07:35:00 2.1 C 93 % 1.09 C
381 25-01-2022 07:40:00 2.1 C 93 % 1.09 C
382 25-01-2022 07:45:00 2.1 C 93 % 1.09 C
383 25-01-2022 07:50:00 2.1 C 93 % 1.09 C
384 25-01-2022 07:55:00 2.1 C 93 % 1.09 C
385 25-01-2022 08:00:00 2 C 94 % 1.14 C
386 25-01-2022 08:05:00 2 C 94 % 1.14 C
387 25-01-2022 08:10:00 2 C 94 % 1.14 C
388 25-01-2022 08:15:00 1.9 C 94 % 1.04 C
389 25-01-2022 08:20:00 1.9 C 94 % 1.04 C
390 25-01-2022 08:25:00 1.9 C 94 % 1.04 C
391 25-01-2022 08:30:00 1.9 C 94 % 1.04 C
392 25-01-2022 08:35:00 1.8 C 94 % 0.94 C
393 25-01-2022 08:40:00 1.8 C 94 % 0.94 C
394 25-01-2022 08:45:00 1.8 C 94 % 0.94 C
395 25-01-2022 08:50:00 1.8 C 94 % 0.94 C
396 25-01-2022 08:55:00 1.8 C 94 % 0.94 C
397 25-01-2022 09:00:00 1.8 C 94 % 0.94 C
398 25-01-2022 09:05:00 1.7 C 94 % 0.84 C
399 25-01-2022 09:10:00 1.7 C 94 % 0.84 C
400 25-01-2022 09:15:00 1.7 C 94 % 0.84 C
Sensor: Nr:Datum:Temp:Feuchte:Taupunkt:
Aussen-T/F 401 25-01-2022 09:20:00 1.7 C 94 % 0.84 C
402 25-01-2022 09:25:00 1.7 C 94 % 0.84 C
403 25-01-2022 09:30:00 1.7 C 94 % 0.84 C
404 25-01-2022 09:35:00 1.7 C 94 % 0.84 C
405 25-01-2022 09:40:00 1.7 C 94 % 0.84 C
406 25-01-2022 09:45:00 1.7 C 94 % 0.84 C
407 25-01-2022 09:50:00 1.7 C 94 % 0.84 C
408 25-01-2022 09:55:00 1.7 C 94 % 0.84 C
409 25-01-2022 10:00:00 1.7 C 94 % 0.84 C
410 25-01-2022 10:05:00 1.7 C 94 % 0.84 C
411 25-01-2022 10:10:00 1.7 C 94 % 0.84 C
412 25-01-2022 10:15:00 1.7 C 94 % 0.84 C
413 25-01-2022 10:20:00 1.7 C 94 % 0.84 C
414 25-01-2022 10:25:00 1.7 C 94 % 0.84 C
415 25-01-2022 10:30:00 1.7 C 94 % 0.84 C
416 25-01-2022 10:35:00 1.7 C 94 % 0.84 C
417 25-01-2022 10:40:00 1.8 C 94 % 0.94 C
418 25-01-2022 10:45:00 1.7 C 94 % 0.84 C
419 25-01-2022 10:50:00 1.7 C 94 % 0.84 C
420 25-01-2022 10:55:00 1.7 C 94 % 0.84 C
421 25-01-2022 11:00:00 1.7 C 94 % 0.84 C
422 25-01-2022 11:05:00 1.7 C 94 % 0.84 C
423 25-01-2022 11:10:00 1.7 C 94 % 0.84 C
424 25-01-2022 11:15:00 1.8 C 94 % 0.94 C
425 25-01-2022 11:20:00 1.7 C 94 % 0.84 C
Sensor: Nr:Datum:Temp:Feuchte:Taupunkt:
Aussen-T/F 426 25-01-2022 11:25:00 1.8 C 94 % 0.94 C
427 25-01-2022 11:30:00 1.8 C 94 % 0.94 C
428 25-01-2022 11:35:00 1.8 C 94 % 0.94 C
429 25-01-2022 11:40:00 1.8 C 94 % 0.94 C
430 25-01-2022 11:45:00 1.9 C 94 % 1.04 C
431 25-01-2022 11:50:00 1.9 C 94 % 1.04 C
432 25-01-2022 11:55:00 1.9 C 94 % 1.04 C
433 25-01-2022 12:00:00 1.9 C 94 % 1.04 C
434 25-01-2022 12:05:00 2 C 94 % 1.14 C
435 25-01-2022 12:10:00 2 C 94 % 1.14 C
436 25-01-2022 12:15:00 2 C 94 % 1.14 C
437 25-01-2022 12:20:00 2 C 94 % 1.14 C
438 25-01-2022 12:25:00 2 C 94 % 1.14 C
439 25-01-2022 12:30:00 2.1 C 94 % 1.24 C
440 25-01-2022 12:35:00 2.1 C 94 % 1.24 C
441 25-01-2022 12:40:00 2.1 C 94 % 1.24 C
442 25-01-2022 12:45:00 2.1 C 94 % 1.24 C
443 25-01-2022 12:50:00 2.2 C 94 % 1.34 C
444 25-01-2022 12:55:00 2.2 C 94 % 1.34 C
445 25-01-2022 13:00:00 2.2 C 94 % 1.34 C
446 25-01-2022 13:05:00 2.3 C 94 % 1.44 C
447 25-01-2022 13:10:00 2.3 C 94 % 1.44 C
448 25-01-2022 13:15:00 2.3 C 94 % 1.44 C
449 25-01-2022 13:20:00 2.4 C 94 % 1.54 C
450 25-01-2022 13:25:00 2.4 C 94 % 1.54 C
Sensor: Nr:Datum:Temp:Feuchte:Taupunkt:
Aussen-T/F 451 25-01-2022 13:30:00 2.4 C 94 % 1.54 C
452 25-01-2022 13:35:00 2.4 C 94 % 1.54 C
453 25-01-2022 13:40:00 2.4 C 94 % 1.54 C
454 25-01-2022 13:45:00 2.4 C 94 % 1.54 C
455 25-01-2022 13:50:00 2.4 C 94 % 1.54 C
456 25-01-2022 13:55:00 2.4 C 94 % 1.54 C
457 25-01-2022 14:00:00 2.4 C 94 % 1.54 C
458 25-01-2022 14:05:00 2.5 C 94 % 1.63 C
459 25-01-2022 14:10:00 2.5 C 94 % 1.63 C
460 25-01-2022 14:15:00 2.5 C 94 % 1.63 C
461 25-01-2022 14:20:00 2.5 C 94 % 1.63 C
462 25-01-2022 14:25:00 2.5 C 94 % 1.63 C
463 25-01-2022 14:30:00 2.4 C 94 % 1.54 C
464 25-01-2022 14:35:00 2.4 C 94 % 1.54 C
465 25-01-2022 14:40:00 2.4 C 94 % 1.54 C
466 25-01-2022 14:45:00 2.3 C 94 % 1.44 C
467 25-01-2022 14:50:00 2.3 C 94 % 1.44 C
468 25-01-2022 14:55:00 2.3 C 94 % 1.44 C
469 25-01-2022 15:00:00 2.3 C 94 % 1.44 C
470 25-01-2022 15:05:00 2.3 C 94 % 1.44 C
471 25-01-2022 15:10:00 2.3 C 94 % 1.44 C
472 25-01-2022 15:15:00 2.3 C 94 % 1.44 C
473 25-01-2022 15:20:00 2.2 C 94 % 1.34 C
474 25-01-2022 15:25:00 2.2 C 94 % 1.34 C
475 25-01-2022 15:30:00 2.2 C 94 % 1.34 C
Sensor: Nr:Datum:Temp:Feuchte:Taupunkt:
Aussen-T/F 476 25-01-2022 15:35:00 2.3 C 94 % 1.44 C
477 25-01-2022 15:40:00 2.2 C 94 % 1.34 C
478 25-01-2022 15:45:00 2.2 C 94 % 1.34 C
479 25-01-2022 15:50:00 2.2 C 94 % 1.34 C
480 25-01-2022 15:55:00 2.2 C 94 % 1.34 C
481 25-01-2022 16:00:00 2.2 C 94 % 1.34 C
482 25-01-2022 16:05:00 2.2 C 94 % 1.34 C
483 25-01-2022 16:10:00 2.2 C 94 % 1.34 C
484 25-01-2022 16:15:00 2.2 C 94 % 1.34 C
485 25-01-2022 16:20:00 2.2 C 94 % 1.34 C
486 25-01-2022 16:25:00 2.2 C 94 % 1.34 C
487 25-01-2022 16:30:00 2.2 C 94 % 1.34 C
488 25-01-2022 16:35:00 2.2 C 94 % 1.34 C
489 25-01-2022 16:40:00 2.2 C 94 % 1.34 C
490 25-01-2022 16:45:00 2.2 C 94 % 1.34 C
491 25-01-2022 16:50:00 2.2 C 94 % 1.34 C
492 25-01-2022 16:55:00 2.2 C 94 % 1.34 C
493 25-01-2022 17:00:00 2.2 C 94 % 1.34 C
494 25-01-2022 17:05:00 2.2 C 94 % 1.34 C
495 25-01-2022 17:10:00 2.2 C 94 % 1.34 C
496 25-01-2022 17:15:00 2.2 C 94 % 1.34 C
497 25-01-2022 17:20:00 2.2 C 94 % 1.34 C
498 25-01-2022 17:25:00 2.2 C 94 % 1.34 C
499 25-01-2022 17:30:00 2.2 C 94 % 1.34 C
500 25-01-2022 17:35:00 2.2 C 94 % 1.34 C
Sensor: Nr:Datum:Temp:Feuchte:Taupunkt:
Aussen-T/F 501 25-01-2022 17:40:00 2.2 C 94 % 1.34 C
502 25-01-2022 17:45:00 2.2 C 94 % 1.34 C
503 25-01-2022 17:50:00 2.2 C 94 % 1.34 C
504 25-01-2022 17:55:00 2.2 C 94 % 1.34 C
505 25-01-2022 18:00:00 2.2 C 94 % 1.34 C
506 25-01-2022 18:05:00 2.2 C 94 % 1.34 C
507 25-01-2022 18:10:00 2.2 C 94 % 1.34 C
508 25-01-2022 18:15:00 2.2 C 94 % 1.34 C
509 25-01-2022 18:20:00 2.2 C 94 % 1.34 C
510 25-01-2022 18:25:00 2.2 C 94 % 1.34 C
511 25-01-2022 18:30:00 2.2 C 94 % 1.34 C
512 25-01-2022 18:35:00 2.2 C 94 % 1.34 C
513 25-01-2022 18:40:00 2.3 C 94 % 1.44 C
514 25-01-2022 18:45:00 2.3 C 94 % 1.44 C
515 25-01-2022 18:50:00 2.3 C 94 % 1.44 C
516 25-01-2022 18:55:00 2.2 C 94 % 1.34 C
517 25-01-2022 19:00:00 2.3 C 94 % 1.44 C
518 25-01-2022 19:05:00 2.3 C 94 % 1.44 C
519 25-01-2022 19:10:00 2.2 C 94 % 1.34 C
520 25-01-2022 19:15:00 2.2 C 94 % 1.34 C
521 25-01-2022 19:20:00 2.2 C 94 % 1.34 C
522 25-01-2022 19:25:00 2.2 C 94 % 1.34 C
523 25-01-2022 19:30:00 2.2 C 94 % 1.34 C
524 25-01-2022 19:35:00 2.2 C 94 % 1.34 C
525 25-01-2022 19:40:00 2.2 C 94 % 1.34 C
Sensor: Nr:Datum:Temp:Feuchte:Taupunkt:
Aussen-T/F 526 25-01-2022 19:45:00 2.2 C 94 % 1.34 C
527 25-01-2022 19:50:00 2.2 C 94 % 1.34 C
528 25-01-2022 19:55:00 2.2 C 94 % 1.34 C
529 25-01-2022 20:00:00 2.2 C 94 % 1.34 C
530 25-01-2022 20:05:00 2.2 C 94 % 1.34 C
531 25-01-2022 20:10:00 2.2 C 94 % 1.34 C
532 25-01-2022 20:15:00 2.2 C 94 % 1.34 C
533 25-01-2022 20:20:00 2.2 C 94 % 1.34 C
534 25-01-2022 20:25:00 2.2 C 94 % 1.34 C
535 25-01-2022 20:30:00 2.2 C 94 % 1.34 C
536 25-01-2022 20:35:00 2.2 C 94 % 1.34 C
537 25-01-2022 20:40:00 2.1 C 94 % 1.24 C
538 25-01-2022 20:45:00 2.1 C 94 % 1.24 C
539 25-01-2022 20:50:00 2.1 C 94 % 1.24 C
540 25-01-2022 20:55:00 2.1 C 94 % 1.24 C
541 25-01-2022 21:00:00 2.1 C 94 % 1.24 C
542 25-01-2022 21:05:00 2.1 C 94 % 1.24 C
543 25-01-2022 21:10:00 2.1 C 94 % 1.24 C
544 25-01-2022 21:15:00 2.1 C 94 % 1.24 C
545 25-01-2022 21:20:00 2.1 C 94 % 1.24 C
546 25-01-2022 21:25:00 2.1 C 94 % 1.24 C
547 25-01-2022 21:30:00 2 C 94 % 1.14 C
548 25-01-2022 21:35:00 2 C 94 % 1.14 C
549 25-01-2022 21:40:00 2 C 94 % 1.14 C
550 25-01-2022 21:45:00 2 C 94 % 1.14 C
Sensor: Nr:Datum:Temp:Feuchte:Taupunkt:
Aussen-T/F 551 25-01-2022 21:50:00 2 C 94 % 1.14 C
552 25-01-2022 21:55:00 1.9 C 94 % 1.04 C
553 25-01-2022 22:00:00 1.9 C 94 % 1.04 C
554 25-01-2022 22:05:00 1.9 C 94 % 1.04 C
555 25-01-2022 22:10:00 1.9 C 94 % 1.04 C
556 25-01-2022 22:15:00 1.9 C 94 % 1.04 C
557 25-01-2022 22:20:00 1.9 C 94 % 1.04 C
558 25-01-2022 22:25:00 1.8 C 94 % 0.94 C
559 25-01-2022 22:30:00 1.7 C 94 % 0.84 C
560 25-01-2022 22:35:00 1.7 C 94 % 0.84 C
561 25-01-2022 22:40:00 1.6 C 94 % 0.74 C
562 25-01-2022 22:45:00 1.6 C 95 % 0.89 C
563 25-01-2022 22:50:00 1.5 C 94 % 0.64 C
564 25-01-2022 22:55:00 1.4 C 94 % 0.54 C
565 25-01-2022 23:00:00 1.4 C 95 % 0.69 C
566 25-01-2022 23:05:00 1.4 C 95 % 0.69 C
567 25-01-2022 23:10:00 1.4 C 95 % 0.69 C
568 25-01-2022 23:15:00 1.4 C 95 % 0.69 C
569 25-01-2022 23:20:00 1.4 C 95 % 0.69 C
570 25-01-2022 23:25:00 1.3 C 95 % 0.59 C
571 25-01-2022 23:30:00 1.3 C 95 % 0.59 C
572 25-01-2022 23:35:00 1.3 C 95 % 0.59 C
573 25-01-2022 23:40:00 1.3 C 95 % 0.59 C
574 25-01-2022 23:45:00 1.3 C 95 % 0.59 C
575 25-01-2022 23:50:00 1.2 C 95 % 0.49 C
Sensor: Nr:Datum:Temp:Feuchte:Taupunkt:
Aussen-T/F 576 25-01-2022 23:55:00 1.2 C 95 % 0.49 C
577 26-01-2022 00:00:00 1.2 C 95 % 0.49 C
578 26-01-2022 00:05:00 1.2 C 95 % 0.49 C
579 26-01-2022 00:10:00 1.2 C 95 % 0.49 C
580 26-01-2022 00:15:00 1.2 C 95 % 0.49 C
581 26-01-2022 00:20:00 1.2 C 95 % 0.49 C
582 26-01-2022 00:25:00 1.2 C 95 % 0.49 C
583 26-01-2022 00:30:00 1.2 C 95 % 0.49 C
584 26-01-2022 00:35:00 1.2 C 95 % 0.49 C
585 26-01-2022 00:40:00 1.2 C 95 % 0.49 C
586 26-01-2022 00:45:00 1.2 C 95 % 0.49 C
587 26-01-2022 00:50:00 1.2 C 95 % 0.49 C
588 26-01-2022 00:55:00 1.2 C 95 % 0.49 C
589 26-01-2022 01:00:00 1.2 C 95 % 0.49 C
590 26-01-2022 01:05:00 1.2 C 95 % 0.49 C
591 26-01-2022 01:10:00 1.2 C 95 % 0.49 C
592 26-01-2022 01:15:00 1.2 C 95 % 0.49 C
593 26-01-2022 01:20:00 1.2 C 95 % 0.49 C
594 26-01-2022 01:25:00 1.2 C 95 % 0.49 C
595 26-01-2022 01:30:00 1.2 C 95 % 0.49 C
596 26-01-2022 01:35:00 1.2 C 95 % 0.49 C
597 26-01-2022 01:40:00 1.2 C 95 % 0.49 C
598 26-01-2022 01:45:00 1.2 C 95 % 0.49 C
599 26-01-2022 01:50:00 1.2 C 95 % 0.49 C
600 26-01-2022 01:55:00 1.3 C 95 % 0.59 C
Sensor: Nr:Datum:Temp:Feuchte:Taupunkt:
Aussen-T/F 601 26-01-2022 02:00:00 1.3 C 95 % 0.59 C
602 26-01-2022 02:05:00 1.3 C 95 % 0.59 C
603 26-01-2022 02:10:00 1.3 C 95 % 0.59 C
604 26-01-2022 02:15:00 1.3 C 95 % 0.59 C
605 26-01-2022 02:20:00 1.3 C 95 % 0.59 C
606 26-01-2022 02:25:00 1.3 C 95 % 0.59 C
607 26-01-2022 02:30:00 1.3 C 95 % 0.59 C
608 26-01-2022 02:35:00 1.3 C 95 % 0.59 C
609 26-01-2022 02:40:00 1.3 C 96 % 0.73 C
610 26-01-2022 02:45:00 1.3 C 96 % 0.73 C
611 26-01-2022 02:50:00 1.3 C 95 % 0.59 C
612 26-01-2022 02:55:00 1.3 C 95 % 0.59 C
613 26-01-2022 03:00:00 1.3 C 95 % 0.59 C
614 26-01-2022 03:05:00 1.3 C 95 % 0.59 C
615 26-01-2022 03:10:00 1.3 C 95 % 0.59 C
616 26-01-2022 03:15:00 1.3 C 95 % 0.59 C
617 26-01-2022 03:20:00 1.4 C 95 % 0.69 C
618 26-01-2022 03:25:00 1.3 C 96 % 0.73 C
619 26-01-2022 03:30:00 1.4 C 96 % 0.83 C
620 26-01-2022 03:35:00 1.4 C 96 % 0.83 C
621 26-01-2022 03:40:00 1.4 C 96 % 0.83 C
622 26-01-2022 03:45:00 1.4 C 96 % 0.83 C
623 26-01-2022 03:50:00 1.4 C 96 % 0.83 C
624 26-01-2022 03:55:00 1.4 C 96 % 0.83 C
625 26-01-2022 04:00:00 1.4 C 96 % 0.83 C
Sensor: Nr:Datum:Temp:Feuchte:Taupunkt:
Aussen-T/F 626 26-01-2022 04:05:00 1.4 C 96 % 0.83 C
627 26-01-2022 04:10:00 1.4 C 96 % 0.83 C
628 26-01-2022 04:15:00 1.4 C 96 % 0.83 C
629 26-01-2022 04:20:00 1.4 C 96 % 0.83 C
630 26-01-2022 04:25:00 1.4 C 96 % 0.83 C
631 26-01-2022 04:30:00 1.4 C 96 % 0.83 C
632 26-01-2022 04:35:00 1.4 C 96 % 0.83 C
633 26-01-2022 04:40:00 1.4 C 96 % 0.83 C
634 26-01-2022 04:45:00 1.4 C 96 % 0.83 C
635 26-01-2022 04:50:00 1.4 C 96 % 0.83 C
636 26-01-2022 04:55:00 1.4 C 96 % 0.83 C
637 26-01-2022 05:00:00 1.5 C 96 % 0.93 C
638 26-01-2022 05:05:00 1.5 C 96 % 0.93 C
639 26-01-2022 05:10:00 1.5 C 96 % 0.93 C
640 26-01-2022 05:15:00 1.6 C 96 % 1.03 C
641 26-01-2022 05:20:00 1.6 C 96 % 1.03 C
642 26-01-2022 05:25:00 1.6 C 96 % 1.03 C
643 26-01-2022 05:30:00 1.6 C 96 % 1.03 C
644 26-01-2022 05:35:00 1.6 C 96 % 1.03 C
645 26-01-2022 05:40:00 1.6 C 96 % 1.03 C
646 26-01-2022 05:45:00 1.7 C 96 % 1.13 C
647 26-01-2022 05:50:00 1.6 C 96 % 1.03 C
648 26-01-2022 05:55:00 1.6 C 96 % 1.03 C
649 26-01-2022 06:00:00 1.6 C 96 % 1.03 C
650 26-01-2022 06:05:00 1.6 C 96 % 1.03 C
Sensor: Nr:Datum:Temp:Feuchte:Taupunkt:
Aussen-T/F 651 26-01-2022 06:10:00 1.6 C 96 % 1.03 C
652 26-01-2022 06:15:00 1.6 C 96 % 1.03 C
653 26-01-2022 06:20:00 1.6 C 96 % 1.03 C
654 26-01-2022 06:25:00 1.7 C 96 % 1.13 C
655 26-01-2022 06:30:00 1.7 C 96 % 1.13 C
656 26-01-2022 06:35:00 1.7 C 96 % 1.13 C
657 26-01-2022 06:40:00 1.7 C 96 % 1.13 C
658 26-01-2022 06:45:00 1.7 C 96 % 1.13 C
659 26-01-2022 06:50:00 1.7 C 96 % 1.13 C
660 26-01-2022 06:55:00 1.7 C 96 % 1.13 C
661 26-01-2022 07:00:00 1.7 C 96 % 1.13 C
662 26-01-2022 07:05:00 1.7 C 96 % 1.13 C
663 26-01-2022 07:10:00 1.7 C 96 % 1.13 C
664 26-01-2022 07:15:00 1.7 C 96 % 1.13 C
665 26-01-2022 07:20:00 1.7 C 96 % 1.13 C
666 26-01-2022 07:25:00 1.7 C 96 % 1.13 C
667 26-01-2022 07:30:00 1.7 C 96 % 1.13 C
668 26-01-2022 07:35:00 1.7 C 96 % 1.13 C
669 26-01-2022 07:40:00 1.7 C 96 % 1.13 C
670 26-01-2022 07:45:00 1.7 C 96 % 1.13 C
671 26-01-2022 07:50:00 1.7 C 96 % 1.13 C
672 26-01-2022 07:55:00 1.7 C 96 % 1.13 C
673 26-01-2022 08:00:00 1.7 C 96 % 1.13 C
674 26-01-2022 08:05:00 1.7 C 96 % 1.13 C
675 26-01-2022 08:10:00 1.7 C 96 % 1.13 C
Sensor: Nr:Datum:Temp:Feuchte:Taupunkt:
Aussen-T/F 676 26-01-2022 08:15:00 1.7 C 96 % 1.13 C
677 26-01-2022 08:20:00 1.7 C 96 % 1.13 C
678 26-01-2022 08:25:00 1.7 C 96 % 1.13 C
679 26-01-2022 08:30:00 1.7 C 96 % 1.13 C
680 26-01-2022 08:35:00 1.7 C 96 % 1.13 C
681 26-01-2022 08:40:00 1.8 C 96 % 1.23 C
682 26-01-2022 08:45:00 1.8 C 95 % 1.09 C
683 26-01-2022 08:50:00 1.8 C 95 % 1.09 C
684 26-01-2022 08:55:00 1.8 C 96 % 1.23 C
685 26-01-2022 09:00:00 1.8 C 95 % 1.09 C
686 26-01-2022 09:05:00 1.8 C 95 % 1.09 C
687 26-01-2022 09:10:00 1.8 C 95 % 1.09 C
688 26-01-2022 09:15:00 1.8 C 96 % 1.23 C
689 26-01-2022 09:20:00 1.8 C 95 % 1.09 C
690 26-01-2022 09:25:00 1.9 C 95 % 1.19 C
691 26-01-2022 09:30:00 1.9 C 95 % 1.19 C
692 26-01-2022 09:35:00 1.9 C 95 % 1.19 C
693 26-01-2022 09:40:00 1.9 C 95 % 1.19 C
694 26-01-2022 09:45:00 1.9 C 95 % 1.19 C
695 26-01-2022 09:50:00 1.9 C 95 % 1.19 C
696 26-01-2022 09:55:00 1.9 C 95 % 1.19 C
697 26-01-2022 10:00:00 1.9 C 94 % 1.04 C
698 26-01-2022 10:05:00 2 C 94 % 1.14 C
699 26-01-2022 10:10:00 2 C 94 % 1.14 C
700 26-01-2022 10:15:00 2 C 94 % 1.14 C
Sensor: Nr:Datum:Temp:Feuchte:Taupunkt:
Aussen-T/F 701 26-01-2022 10:20:00 2 C 94 % 1.14 C
702 26-01-2022 10:25:00 2 C 94 % 1.14 C
703 26-01-2022 10:30:00 2.1 C 94 % 1.24 C
704 26-01-2022 10:35:00 2.1 C 94 % 1.24 C
705 26-01-2022 10:40:00 2.1 C 94 % 1.24 C
706 26-01-2022 10:45:00 2.2 C 93 % 1.19 C
707 26-01-2022 10:50:00 2.2 C 93 % 1.19 C
708 26-01-2022 10:55:00 2.2 C 93 % 1.19 C
709 26-01-2022 11:00:00 2.2 C 93 % 1.19 C
710 26-01-2022 11:05:00 2.2 C 93 % 1.19 C
711 26-01-2022 11:10:00 2.2 C 93 % 1.19 C
712 26-01-2022 11:15:00 2.2 C 92 % 1.04 C
713 26-01-2022 11:20:00 2.2 C 92 % 1.04 C
714 26-01-2022 11:25:00 2.2 C 92 % 1.04 C
715 26-01-2022 11:30:00 2.3 C 92 % 1.14 C
716 26-01-2022 11:35:00 2.3 C 92 % 1.14 C
717 26-01-2022 11:40:00 2.3 C 92 % 1.14 C
718 26-01-2022 11:45:00 2.3 C 92 % 1.14 C
719 26-01-2022 11:50:00 2.3 C 92 % 1.14 C
720 26-01-2022 11:55:00 2.3 C 92 % 1.14 C
721 26-01-2022 12:00:00 2.3 C 91 % 0.99 C
722 26-01-2022 12:05:00 2.3 C 91 % 0.99 C
723 26-01-2022 12:10:00 2.3 C 91 % 0.99 C
724 26-01-2022 12:15:00 2.3 C 90 % 0.83 C
725 26-01-2022 12:20:00 2.3 C 90 % 0.83 C
Sensor: Nr:Datum:Temp:Feuchte:Taupunkt:
Aussen-T/F 726 26-01-2022 12:25:00 2.3 C 91 % 0.99 C
727 26-01-2022 12:30:00 2.3 C 90 % 0.83 C
728 26-01-2022 12:35:00 2.3 C 90 % 0.83 C
729 26-01-2022 12:40:00 2.3 C 90 % 0.83 C
730 26-01-2022 12:45:00 2.3 C 90 % 0.83 C
731 26-01-2022 12:50:00 2.2 C 90 % 0.73 C
732 26-01-2022 12:55:00 2.3 C 90 % 0.83 C
733 26-01-2022 13:00:00 2.3 C 90 % 0.83 C
734 26-01-2022 13:05:00 2.4 C 89 % 0.78 C
735 26-01-2022 13:10:00 2.4 C 90 % 0.93 C
736 26-01-2022 13:15:00 2.5 C 89 % 0.88 C
737 26-01-2022 13:20:00 2.6 C 89 % 0.97 C
738 26-01-2022 13:25:00 2.6 C 89 % 0.97 C
739 26-01-2022 13:30:00 2.6 C 89 % 0.97 C
740 26-01-2022 13:35:00 2.6 C 89 % 0.97 C
741 26-01-2022 13:40:00 2.7 C 89 % 1.07 C
742 26-01-2022 13:45:00 2.7 C 88 % 0.92 C
743 26-01-2022 13:50:00 2.7 C 88 % 0.92 C
744 26-01-2022 13:55:00 2.7 C 88 % 0.92 C
745 26-01-2022 14:00:00 2.7 C 88 % 0.92 C
746 26-01-2022 14:05:00 2.8 C 88 % 1.02 C
747 26-01-2022 14:10:00 2.8 C 88 % 1.02 C
748 26-01-2022 14:15:00 2.8 C 88 % 1.02 C
749 26-01-2022 14:20:00 2.8 C 88 % 1.02 C
750 26-01-2022 14:25:00 2.8 C 88 % 1.02 C
Sensor: Nr:Datum:Temp:Feuchte:Taupunkt:
Aussen-T/F 751 26-01-2022 14:30:00 2.8 C 88 % 1.02 C
752 26-01-2022 14:35:00 2.8 C 89 % 1.17 C
753 26-01-2022 14:40:00 2.8 C 88 % 1.02 C
754 26-01-2022 14:45:00 2.8 C 88 % 1.02 C
755 26-01-2022 14:50:00 2.8 C 88 % 1.02 C
756 26-01-2022 14:55:00 2.8 C 88 % 1.02 C
757 26-01-2022 15:00:00 2.7 C 88 % 0.92 C
758 26-01-2022 15:05:00 2.7 C 88 % 0.92 C
759 26-01-2022 15:10:00 2.7 C 88 % 0.92 C
760 26-01-2022 15:15:00 2.7 C 89 % 1.07 C
761 26-01-2022 15:20:00 2.7 C 89 % 1.07 C
762 26-01-2022 15:25:00 2.7 C 89 % 1.07 C
763 26-01-2022 15:30:00 2.7 C 89 % 1.07 C
764 26-01-2022 15:35:00 2.7 C 89 % 1.07 C
765 26-01-2022 15:40:00 2.8 C 89 % 1.17 C
766 26-01-2022 15:45:00 2.8 C 89 % 1.17 C
767 26-01-2022 15:50:00 2.8 C 89 % 1.17 C
768 26-01-2022 15:55:00 2.8 C 89 % 1.17 C
769 26-01-2022 16:00:00 2.8 C 89 % 1.17 C
770 26-01-2022 16:05:00 2.8 C 89 % 1.17 C
771 26-01-2022 16:10:00 2.8 C 88 % 1.02 C
772 26-01-2022 16:15:00 2.8 C 88 % 1.02 C
773 26-01-2022 16:20:00 2.8 C 88 % 1.02 C
774 26-01-2022 16:25:00 2.8 C 88 % 1.02 C
775 26-01-2022 16:30:00 2.8 C 88 % 1.02 C
Sensor: Nr:Datum:Temp:Feuchte:Taupunkt:
Aussen-T/F 776 26-01-2022 16:35:00 2.8 C 88 % 1.02 C
777 26-01-2022 16:40:00 2.8 C 88 % 1.02 C
778 26-01-2022 16:45:00 2.8 C 88 % 1.02 C
779 26-01-2022 16:50:00 2.8 C 88 % 1.02 C
780 26-01-2022 16:55:00 2.7 C 88 % 0.92 C
781 26-01-2022 17:00:00 2.7 C 88 % 0.92 C
782 26-01-2022 17:05:00 2.7 C 88 % 0.92 C
783 26-01-2022 17:10:00 2.7 C 88 % 0.92 C
784 26-01-2022 17:15:00 2.7 C 88 % 0.92 C
785 26-01-2022 17:20:00 2.7 C 88 % 0.92 C
786 26-01-2022 17:25:00 2.7 C 88 % 0.92 C
787 26-01-2022 17:30:00 2.6 C 89 % 0.97 C
788 26-01-2022 17:35:00 2.6 C 88 % 0.82 C
789 26-01-2022 17:40:00 2.6 C 89 % 0.97 C
790 26-01-2022 17:45:00 2.6 C 89 % 0.97 C
791 26-01-2022 17:50:00 2.6 C 89 % 0.97 C
792 26-01-2022 17:55:00 2.5 C 89 % 0.88 C
793 26-01-2022 18:00:00 2.5 C 89 % 0.88 C
794 26-01-2022 18:05:00 2.5 C 89 % 0.88 C
795 26-01-2022 18:10:00 2.5 C 89 % 0.88 C
796 26-01-2022 18:15:00 2.4 C 89 % 0.78 C
797 26-01-2022 18:20:00 2.4 C 89 % 0.78 C
798 26-01-2022 18:25:00 2.4 C 89 % 0.78 C
799 26-01-2022 18:30:00 2.4 C 89 % 0.78 C
800 26-01-2022 18:35:00 2.4 C 89 % 0.78 C
Sensor: Nr:Datum:Temp:Feuchte:Taupunkt:
Aussen-T/F 801 26-01-2022 18:40:00 2.4 C 89 % 0.78 C
802 26-01-2022 18:45:00 2.4 C 89 % 0.78 C
803 26-01-2022 18:50:00 2.4 C 89 % 0.78 C
804 26-01-2022 18:55:00 2.4 C 89 % 0.78 C
805 26-01-2022 19:00:00 2.4 C 89 % 0.78 C
806 26-01-2022 19:05:00 2.4 C 89 % 0.78 C
807 26-01-2022 19:10:00 2.4 C 89 % 0.78 C
808 26-01-2022 19:15:00 2.4 C 89 % 0.78 C
809 26-01-2022 19:20:00 2.3 C 89 % 0.68 C
810 26-01-2022 19:25:00 2.3 C 89 % 0.68 C
811 26-01-2022 19:30:00 2.3 C 89 % 0.68 C
812 26-01-2022 19:35:00 2.3 C 89 % 0.68 C
813 26-01-2022 19:40:00 2.3 C 89 % 0.68 C
814 26-01-2022 19:45:00 2.3 C 89 % 0.68 C
815 26-01-2022 19:50:00 2.3 C 89 % 0.68 C
816 26-01-2022 19:55:00 2.3 C 89 % 0.68 C
817 26-01-2022 20:00:00 2.3 C 89 % 0.68 C
818 26-01-2022 20:05:00 2.3 C 90 % 0.83 C
819 26-01-2022 20:10:00 2.3 C 90 % 0.83 C
820 26-01-2022 20:15:00 2.3 C 89 % 0.68 C
821 26-01-2022 20:20:00 2.3 C 89 % 0.68 C
822 26-01-2022 20:25:00 2.3 C 89 % 0.68 C
823 26-01-2022 20:30:00 2.3 C 90 % 0.83 C
824 26-01-2022 20:35:00 2.3 C 89 % 0.68 C
825 26-01-2022 20:40:00 2.3 C 89 % 0.68 C
Sensor: Nr:Datum:Temp:Feuchte:Taupunkt:
Aussen-T/F 826 26-01-2022 20:45:00 2.3 C 89 % 0.68 C
827 26-01-2022 20:50:00 2.3 C 89 % 0.68 C
828 26-01-2022 20:55:00 2.3 C 89 % 0.68 C
829 26-01-2022 21:00:00 2.3 C 89 % 0.68 C
830 26-01-2022 21:05:00 2.3 C 89 % 0.68 C
831 26-01-2022 21:10:00 2.3 C 89 % 0.68 C
832 26-01-2022 21:15:00 2.3 C 89 % 0.68 C
833 26-01-2022 21:20:00 2.3 C 89 % 0.68 C
834 26-01-2022 21:25:00 2.3 C 89 % 0.68 C
835 26-01-2022 21:30:00 2.3 C 89 % 0.68 C
836 26-01-2022 21:35:00 2.3 C 88 % 0.52 C
837 26-01-2022 21:40:00 2.2 C 88 % 0.42 C
838 26-01-2022 21:45:00 2.2 C 88 % 0.42 C
839 26-01-2022 21:50:00 2.2 C 88 % 0.42 C
840 26-01-2022 21:55:00 2.2 C 88 % 0.42 C
841 26-01-2022 22:00:00 2.2 C 88 % 0.42 C
842 26-01-2022 22:05:00 2.2 C 88 % 0.42 C
843 26-01-2022 22:10:00 2.2 C 88 % 0.42 C
844 26-01-2022 22:15:00 2.1 C 87 % 0.17 C
845 26-01-2022 22:20:00 2.1 C 87 % 0.17 C
846 26-01-2022 22:25:00 2.1 C 87 % 0.17 C
847 26-01-2022 22:30:00 2.1 C 87 % 0.17 C
848 26-01-2022 22:35:00 2.1 C 87 % 0.17 C
849 26-01-2022 22:40:00 2.1 C 87 % 0.17 C
850 26-01-2022 22:45:00 2.1 C 87 % 0.17 C
Sensor: Nr:Datum:Temp:Feuchte:Taupunkt:
Aussen-T/F 851 26-01-2022 22:50:00 2.1 C 87 % 0.17 C
852 26-01-2022 22:55:00 2.1 C 87 % 0.17 C
853 26-01-2022 23:00:00 2.1 C 88 % 0.33 C
854 26-01-2022 23:05:00 2.1 C 88 % 0.33 C
855 26-01-2022 23:10:00 2.1 C 87 % 0.17 C
856 26-01-2022 23:15:00 2.1 C 87 % 0.17 C
857 26-01-2022 23:20:00 2.1 C 88 % 0.33 C
858 26-01-2022 23:25:00 2.1 C 88 % 0.33 C
859 26-01-2022 23:30:00 2.1 C 88 % 0.33 C
860 26-01-2022 23:35:00 2 C 88 % 0.23 C
861 26-01-2022 23:40:00 2 C 88 % 0.23 C
862 26-01-2022 23:45:00 2 C 88 % 0.23 C
863 26-01-2022 23:50:00 2 C 88 % 0.23 C
864 26-01-2022 23:55:00 2 C 88 % 0.23 C
865 27-01-2022 00:00:00 2 C 88 % 0.23 C
866 27-01-2022 00:05:00 2 C 88 % 0.23 C
867 27-01-2022 00:10:00 1.9 C 88 % 0.13 C
868 27-01-2022 00:15:00 1.9 C 88 % 0.13 C
869 27-01-2022 00:20:00 1.9 C 88 % 0.13 C
870 27-01-2022 00:25:00 1.9 C 88 % 0.13 C
871 27-01-2022 00:30:00 1.9 C 88 % 0.13 C
872 27-01-2022 00:35:00 1.9 C 88 % 0.13 C
873 27-01-2022 00:40:00 1.9 C 88 % 0.13 C
874 27-01-2022 00:45:00 1.9 C 88 % 0.13 C
875 27-01-2022 00:50:00 1.8 C 88 % 0.03 C
Sensor: Nr:Datum:Temp:Feuchte:Taupunkt:
Aussen-T/F 876 27-01-2022 00:55:00 1.8 C 89 % 0.19 C
877 27-01-2022 01:00:00 1.8 C 88 % 0.03 C
878 27-01-2022 01:05:00 1.8 C 89 % 0.19 C
879 27-01-2022 01:10:00 1.8 C 89 % 0.19 C
880 27-01-2022 01:15:00 1.8 C 89 % 0.19 C
881 27-01-2022 01:20:00 1.8 C 89 % 0.19 C
882 27-01-2022 01:25:00 1.8 C 89 % 0.19 C
883 27-01-2022 01:30:00 1.8 C 89 % 0.19 C
884 27-01-2022 01:35:00 1.8 C 89 % 0.19 C
885 27-01-2022 01:40:00 1.8 C 89 % 0.19 C
886 27-01-2022 01:45:00 1.8 C 89 % 0.19 C
887 27-01-2022 01:50:00 1.8 C 89 % 0.19 C
888 27-01-2022 01:55:00 1.8 C 89 % 0.19 C
889 27-01-2022 02:00:00 1.8 C 89 % 0.19 C
890 27-01-2022 02:05:00 1.8 C 89 % 0.19 C
891 27-01-2022 02:10:00 1.8 C 89 % 0.19 C
892 27-01-2022 02:15:00 1.8 C 89 % 0.19 C
893 27-01-2022 02:20:00 1.8 C 89 % 0.19 C
894 27-01-2022 02:25:00 1.8 C 89 % 0.19 C
895 27-01-2022 02:30:00 1.8 C 89 % 0.19 C
896 27-01-2022 02:35:00 1.8 C 89 % 0.19 C
897 27-01-2022 02:40:00 1.7 C 89 % 0.09 C
898 27-01-2022 02:45:00 1.7 C 89 % 0.09 C
899 27-01-2022 02:50:00 1.7 C 89 % 0.09 C
900 27-01-2022 02:55:00 1.7 C 89 % 0.09 C
Sensor: Nr:Datum:Temp:Feuchte:Taupunkt:
Aussen-T/F 901 27-01-2022 03:00:00 1.7 C 89 % 0.09 C
902 27-01-2022 03:05:00 1.7 C 89 % 0.09 C
903 27-01-2022 03:10:00 1.7 C 89 % 0.09 C
904 27-01-2022 03:15:00 1.7 C 88 % -0.07 C
905 27-01-2022 03:20:00 1.7 C 89 % 0.09 C
906 27-01-2022 03:25:00 1.7 C 89 % 0.09 C
907 27-01-2022 03:30:00 1.7 C 89 % 0.09 C
908 27-01-2022 03:35:00 1.7 C 89 % 0.09 C
909 27-01-2022 03:40:00 1.7 C 88 % -0.07 C
910 27-01-2022 03:45:00 1.7 C 88 % -0.07 C
911 27-01-2022 03:50:00 1.7 C 88 % -0.07 C
912 27-01-2022 03:55:00 1.7 C 88 % -0.07 C
913 27-01-2022 04:00:00 1.8 C 88 % 0.03 C
914 27-01-2022 04:05:00 1.8 C 88 % 0.03 C
915 27-01-2022 04:10:00 1.8 C 88 % 0.03 C
916 27-01-2022 04:15:00 1.8 C 88 % 0.03 C
917 27-01-2022 04:20:00 1.8 C 88 % 0.03 C
918 27-01-2022 04:25:00 1.8 C 88 % 0.03 C
919 27-01-2022 04:30:00 1.8 C 88 % 0.03 C
920 27-01-2022 04:35:00 1.8 C 88 % 0.03 C
921 27-01-2022 04:40:00 1.8 C 88 % 0.03 C
922 27-01-2022 04:45:00 1.8 C 88 % 0.03 C
923 27-01-2022 04:50:00 1.8 C 88 % 0.03 C
924 27-01-2022 04:55:00 1.8 C 88 % 0.03 C
925 27-01-2022 05:00:00 1.8 C 88 % 0.03 C
Sensor: Nr:Datum:Temp:Feuchte:Taupunkt:
Aussen-T/F 926 27-01-2022 05:05:00 1.8 C 88 % 0.03 C
927 27-01-2022 05:10:00 1.8 C 88 % 0.03 C
928 27-01-2022 05:15:00 1.8 C 88 % 0.03 C
929 27-01-2022 05:20:00 1.9 C 88 % 0.13 C
930 27-01-2022 05:25:00 1.9 C 88 % 0.13 C
931 27-01-2022 05:30:00 1.9 C 88 % 0.13 C
932 27-01-2022 05:35:00 2 C 88 % 0.23 C
933 27-01-2022 05:40:00 2 C 88 % 0.23 C
934 27-01-2022 05:45:00 2 C 88 % 0.23 C
935 27-01-2022 05:50:00 2 C 88 % 0.23 C
936 27-01-2022 05:55:00 2 C 88 % 0.23 C
937 27-01-2022 06:00:00 2 C 88 % 0.23 C
938 27-01-2022 06:05:00 2.1 C 88 % 0.33 C
939 27-01-2022 06:10:00 2.1 C 88 % 0.33 C
940 27-01-2022 06:15:00 2.1 C 88 % 0.33 C
941 27-01-2022 06:20:00 2.1 C 88 % 0.33 C
942 27-01-2022 06:25:00 2.1 C 88 % 0.33 C
943 27-01-2022 06:30:00 2.1 C 88 % 0.33 C
944 27-01-2022 06:35:00 2.1 C 88 % 0.33 C
945 27-01-2022 06:40:00 2.1 C 88 % 0.33 C
946 27-01-2022 06:45:00 2.1 C 88 % 0.33 C
947 27-01-2022 06:50:00 2.1 C 88 % 0.33 C
948 27-01-2022 06:55:00 2.1 C 89 % 0.48 C
949 27-01-2022 07:00:00 2.1 C 89 % 0.48 C
950 27-01-2022 07:05:00 2.2 C 89 % 0.58 C
Sensor: Nr:Datum:Temp:Feuchte:Taupunkt:
Aussen-T/F 951 27-01-2022 07:10:00 2.2 C 89 % 0.58 C
952 27-01-2022 07:15:00 2.2 C 89 % 0.58 C
953 27-01-2022 07:20:00 2.3 C 89 % 0.68 C
954 27-01-2022 07:25:00 2.3 C 89 % 0.68 C
955 27-01-2022 07:30:00 2.3 C 89 % 0.68 C
956 27-01-2022 07:35:00 2.3 C 89 % 0.68 C
957 27-01-2022 07:40:00 2.3 C 89 % 0.68 C
958 27-01-2022 07:45:00 2.3 C 89 % 0.68 C
959 27-01-2022 07:50:00 2.4 C 89 % 0.78 C
960 27-01-2022 07:55:00 2.4 C 89 % 0.78 C
961 27-01-2022 08:00:00 2.4 C 89 % 0.78 C
962 27-01-2022 08:05:00 2.4 C 89 % 0.78 C
963 27-01-2022 08:10:00 2.4 C 89 % 0.78 C
964 27-01-2022 08:15:00 2.4 C 89 % 0.78 C
965 27-01-2022 08:20:00 2.4 C 89 % 0.78 C
966 27-01-2022 08:25:00 2.4 C 89 % 0.78 C
967 27-01-2022 08:30:00 2.4 C 90 % 0.93 C
968 27-01-2022 08:35:00 2.5 C 90 % 1.03 C
969 27-01-2022 08:40:00 2.5 C 90 % 1.03 C
970 27-01-2022 08:45:00 2.6 C 90 % 1.13 C
971 27-01-2022 08:50:00 2.7 C 90 % 1.23 C
972 27-01-2022 08:55:00 2.7 C 90 % 1.23 C
973 27-01-2022 09:00:00 2.7 C 90 % 1.23 C
974 27-01-2022 09:05:00 2.8 C 90 % 1.33 C
975 27-01-2022 09:10:00 2.9 C 90 % 1.43 C
Sensor: Nr:Datum:Temp:Feuchte:Taupunkt:
Aussen-T/F 976 27-01-2022 09:15:00 3 C 90 % 1.52 C
977 27-01-2022 09:20:00 3.1 C 90 % 1.62 C
978 27-01-2022 09:25:00 3.2 C 90 % 1.72 C
979 27-01-2022 09:30:00 3.2 C 90 % 1.72 C
980 27-01-2022 09:35:00 3.2 C 90 % 1.72 C
981 27-01-2022 09:40:00 3.2 C 90 % 1.72 C
982 27-01-2022 09:45:00 3.2 C 90 % 1.72 C
983 27-01-2022 09:50:00 3.3 C 90 % 1.82 C
984 27-01-2022 09:55:00 3.3 C 90 % 1.82 C
985 27-01-2022 10:00:00 3.3 C 90 % 1.82 C
986 27-01-2022 10:05:00 3.4 C 90 % 1.92 C
987 27-01-2022 10:10:00 3.5 C 90 % 2.02 C
988 27-01-2022 10:15:00 3.6 C 89 % 1.96 C
989 27-01-2022 10:20:00 3.7 C 89 % 2.06 C
990 27-01-2022 10:25:00 3.8 C 89 % 2.16 C
991 27-01-2022 10:30:00 4 C 89 % 2.36 C
992 27-01-2022 10:35:00 4.1 C 88 % 2.3 C
993 27-01-2022 10:40:00 4.2 C 88 % 2.39 C
994 27-01-2022 10:45:00 4.2 C 88 % 2.39 C
995 27-01-2022 10:50:00 4.2 C 88 % 2.39 C
996 27-01-2022 10:55:00 4.2 C 88 % 2.39 C
997 27-01-2022 11:00:00 4.1 C 88 % 2.3 C
998 27-01-2022 11:05:00 4.1 C 88 % 2.3 C
999 27-01-2022 11:10:00 4.1 C 88 % 2.3 C
1000 27-01-2022 11:15:00 4.1 C 88 % 2.3 C
Sensor: Nr:Datum:Temp:Feuchte:Taupunkt:
Aussen-T/F 1001 27-01-2022 11:20:00 4.1 C 88 % 2.3 C
1002 27-01-2022 11:25:00 4.1 C 89 % 2.45 C
1003 27-01-2022 11:30:00 4.1 C 89 % 2.45 C
1004 27-01-2022 11:35:00 4.1 C 89 % 2.45 C
1005 27-01-2022 11:40:00 4.2 C 89 % 2.55 C
1006 27-01-2022 11:45:00 4.2 C 89 % 2.55 C
1007 27-01-2022 11:50:00 4.2 C 89 % 2.55 C
1008 27-01-2022 11:55:00 4.1 C 89 % 2.45 C
1009 27-01-2022 12:00:00 4.2 C 89 % 2.55 C
1010 27-01-2022 12:05:00 4.2 C 89 % 2.55 C
1011 27-01-2022 12:10:00 4.1 C 89 % 2.45 C
1012 27-01-2022 12:15:00 4.1 C 89 % 2.45 C
1013 27-01-2022 12:20:00 4 C 89 % 2.36 C
1014 27-01-2022 12:25:00 3.9 C 89 % 2.26 C
1015 27-01-2022 12:30:00 3.9 C 89 % 2.26 C
1016 27-01-2022 12:35:00 3.9 C 89 % 2.26 C
1017 27-01-2022 12:40:00 3.9 C 89 % 2.26 C
1018 27-01-2022 12:45:00 3.9 C 89 % 2.26 C
1019 27-01-2022 12:50:00 3.9 C 89 % 2.26 C
1020 27-01-2022 12:55:00 4 C 89 % 2.36 C
1021 27-01-2022 13:00:00 4 C 89 % 2.36 C
1022 27-01-2022 13:05:00 4 C 89 % 2.36 C
1023 27-01-2022 13:10:00 4 C 90 % 2.51 C
1024 27-01-2022 13:15:00 4.1 C 91 % 2.77 C
1025 27-01-2022 13:20:00 4.2 C 90 % 2.71 C
Sensor: Nr:Datum:Temp:Feuchte:Taupunkt:
Aussen-T/F 1026 27-01-2022 13:25:00 4.2 C 90 % 2.71 C
1027 27-01-2022 13:30:00 4.2 C 90 % 2.71 C
1028 27-01-2022 13:35:00 4.2 C 91 % 2.87 C
1029 27-01-2022 13:40:00 4.2 C 91 % 2.87 C
1030 27-01-2022 13:45:00 4.1 C 91 % 2.77 C
1031 27-01-2022 13:50:00 4.1 C 91 % 2.77 C
1032 27-01-2022 13:55:00 4.1 C 91 % 2.77 C
1033 27-01-2022 14:00:00 4.1 C 91 % 2.77 C
1034 27-01-2022 14:05:00 4.1 C 91 % 2.77 C
1035 27-01-2022 14:10:00 4.1 C 91 % 2.77 C
1036 27-01-2022 14:15:00 4.1 C 90 % 2.61 C
1037 27-01-2022 14:20:00 4.1 C 90 % 2.61 C
1038 27-01-2022 14:25:00 4.1 C 90 % 2.61 C
1039 27-01-2022 14:30:00 4.1 C 90 % 2.61 C
1040 27-01-2022 14:35:00 4.2 C 91 % 2.87 C
1041 27-01-2022 14:40:00 4.2 C 91 % 2.87 C
1042 27-01-2022 14:45:00 4.2 C 91 % 2.87 C
1043 27-01-2022 14:50:00 4.2 C 91 % 2.87 C
1044 27-01-2022 14:55:00 4.2 C 91 % 2.87 C
1045 27-01-2022 15:00:00 4.2 C 91 % 2.87 C
1046 27-01-2022 15:05:00 4.2 C 91 % 2.87 C
1047 27-01-2022 15:10:00 4.3 C 91 % 2.96 C
1048 27-01-2022 15:15:00 4.3 C 91 % 2.96 C
1049 27-01-2022 15:20:00 4.4 C 91 % 3.06 C
1050 27-01-2022 15:25:00 4.4 C 91 % 3.06 C
Sensor: Nr:Datum:Temp:Feuchte:Taupunkt:
Aussen-T/F 1051 27-01-2022 15:30:00 4.3 C 91 % 2.96 C
1052 27-01-2022 15:35:00 4.3 C 91 % 2.96 C
1053 27-01-2022 15:40:00 4.3 C 91 % 2.96 C
1054 27-01-2022 15:45:00 4.3 C 90 % 2.81 C
1055 27-01-2022 15:50:00 4.3 C 90 % 2.81 C
1056 27-01-2022 15:55:00 4.4 C 90 % 2.91 C
1057 27-01-2022 16:00:00 4.4 C 90 % 2.91 C
1058 27-01-2022 16:05:00 4.4 C 90 % 2.91 C
1059 27-01-2022 16:10:00 4.4 C 90 % 2.91 C
1060 27-01-2022 16:15:00 4.3 C 90 % 2.81 C
1061 27-01-2022 16:20:00 4.3 C 90 % 2.81 C
1062 27-01-2022 16:25:00 4.3 C 90 % 2.81 C
1063 27-01-2022 16:30:00 4.3 C 91 % 2.96 C
1064 27-01-2022 16:35:00 4.3 C 91 % 2.96 C
1065 27-01-2022 16:40:00 4.3 C 91 % 2.96 C
1066 27-01-2022 16:45:00 4.3 C 91 % 2.96 C
1067 27-01-2022 16:50:00 4.3 C 90 % 2.81 C
1068 27-01-2022 16:55:00 4.3 C 90 % 2.81 C
1069 27-01-2022 17:00:00 4.3 C 90 % 2.81 C
1070 27-01-2022 17:05:00 4.3 C 90 % 2.81 C
1071 27-01-2022 17:10:00 4.3 C 91 % 2.96 C
1072 27-01-2022 17:15:00 4.2 C 91 % 2.87 C
1073 27-01-2022 17:20:00 4.2 C 91 % 2.87 C
1074 27-01-2022 17:25:00 4.2 C 91 % 2.87 C
1075 27-01-2022 17:30:00 4.2 C 91 % 2.87 C
Sensor: Nr:Datum:Temp:Feuchte:Taupunkt:
Aussen-T/F 1076 27-01-2022 17:35:00 4.3 C 91 % 2.96 C
1077 27-01-2022 17:40:00 4.3 C 91 % 2.96 C
1078 27-01-2022 17:45:00 4.3 C 91 % 2.96 C
1079 27-01-2022 17:50:00 4.3 C 91 % 2.96 C
1080 27-01-2022 17:55:00 4.3 C 91 % 2.96 C
1081 27-01-2022 18:00:00 4.3 C 91 % 2.96 C
1082 27-01-2022 18:05:00 4.3 C 91 % 2.96 C
1083 27-01-2022 18:10:00 4.4 C 91 % 3.06 C
1084 27-01-2022 18:15:00 4.4 C 91 % 3.06 C
1085 27-01-2022 18:20:00 4.4 C 91 % 3.06 C
1086 27-01-2022 18:25:00 4.4 C 91 % 3.06 C
1087 27-01-2022 18:30:00 4.4 C 91 % 3.06 C
1088 27-01-2022 18:35:00 4.4 C 91 % 3.06 C
1089 27-01-2022 18:40:00 4.4 C 90 % 2.91 C
1090 27-01-2022 18:45:00 4.4 C 90 % 2.91 C
1091 27-01-2022 18:50:00 4.4 C 90 % 2.91 C
1092 27-01-2022 18:55:00 4.4 C 90 % 2.91 C
1093 27-01-2022 19:00:00 4.4 C 91 % 3.06 C
1094 27-01-2022 19:05:00 4.4 C 91 % 3.06 C
1095 27-01-2022 19:10:00 4.4 C 91 % 3.06 C
1096 27-01-2022 19:15:00 4.5 C 91 % 3.16 C
1097 27-01-2022 19:20:00 4.5 C 91 % 3.16 C
1098 27-01-2022 19:25:00 4.4 C 92 % 3.22 C
1099 27-01-2022 19:30:00 4.4 C 92 % 3.22 C
1100 27-01-2022 19:35:00 4.3 C 92 % 3.12 C
Sensor: Nr:Datum:Temp:Feuchte:Taupunkt:
Aussen-T/F 1101 27-01-2022 19:40:00 4.3 C 93 % 3.27 C
1102 27-01-2022 19:45:00 4.3 C 93 % 3.27 C
1103 27-01-2022 19:50:00 4.2 C 93 % 3.17 C
1104 27-01-2022 19:55:00 4.2 C 93 % 3.17 C
1105 27-01-2022 20:00:00 4.2 C 93 % 3.17 C
1106 27-01-2022 20:05:00 4.2 C 93 % 3.17 C
1107 27-01-2022 20:10:00 4.2 C 93 % 3.17 C
1108 27-01-2022 20:15:00 4.3 C 93 % 3.27 C
1109 27-01-2022 20:20:00 4.3 C 93 % 3.27 C
1110 27-01-2022 20:25:00 4.3 C 93 % 3.27 C
1111 27-01-2022 20:30:00 4.3 C 93 % 3.27 C
1112 27-01-2022 20:35:00 4.3 C 93 % 3.27 C
1113 27-01-2022 20:40:00 4.3 C 93 % 3.27 C
1114 27-01-2022 20:45:00 4.3 C 93 % 3.27 C
1115 27-01-2022 20:50:00 4.4 C 93 % 3.37 C
1116 27-01-2022 20:55:00 4.4 C 93 % 3.37 C
1117 27-01-2022 21:00:00 4.4 C 93 % 3.37 C
1118 27-01-2022 21:05:00 4.4 C 93 % 3.37 C
1119 27-01-2022 21:10:00 4.5 C 92 % 3.32 C
1120 27-01-2022 21:15:00 4.5 C 92 % 3.32 C
1121 27-01-2022 21:20:00 4.6 C 92 % 3.42 C
1122 27-01-2022 21:25:00 4.6 C 92 % 3.42 C
1123 27-01-2022 21:30:00 4.7 C 92 % 3.51 C
1124 27-01-2022 21:35:00 4.7 C 92 % 3.51 C
1125 27-01-2022 21:40:00 4.8 C 92 % 3.61 C
Sensor: Nr:Datum:Temp:Feuchte:Taupunkt:
Aussen-T/F 1126 27-01-2022 21:45:00 4.9 C 92 % 3.71 C
1127 27-01-2022 21:50:00 5.1 C 92 % 3.91 C
1128 27-01-2022 21:55:00 5.1 C 91 % 3.76 C
1129 27-01-2022 22:00:00 5.1 C 91 % 3.76 C
1130 27-01-2022 22:05:00 5.1 C 91 % 3.76 C
1131 27-01-2022 22:10:00 5.1 C 90 % 3.6 C
1132 27-01-2022 22:15:00 5.1 C 90 % 3.6 C
1133 27-01-2022 22:20:00 5.1 C 90 % 3.6 C
1134 27-01-2022 22:25:00 5.1 C 90 % 3.6 C
1135 27-01-2022 22:30:00 5.1 C 90 % 3.6 C
1136 27-01-2022 22:35:00 5.3 C 90 % 3.8 C
1137 27-01-2022 22:40:00 5.4 C 89 % 3.74 C
1138 27-01-2022 22:45:00 5.7 C 89 % 4.03 C
1139 27-01-2022 22:50:00 5.9 C 88 % 4.07 C
1140 27-01-2022 22:55:00 6.1 C 87 % 4.1 C
1141 27-01-2022 23:00:00 6.2 C 87 % 4.2 C
1142 27-01-2022 23:05:00 6.3 C 86 % 4.14 C
1143 27-01-2022 23:10:00 6.6 C 85 % 4.26 C
1144 27-01-2022 23:15:00 6.8 C 84 % 4.29 C
1145 27-01-2022 23:20:00 6.9 C 84 % 4.39 C
1146 27-01-2022 23:25:00 7 C 83 % 4.32 C
1147 27-01-2022 23:30:00 7.1 C 83 % 4.41 C
1148 27-01-2022 23:35:00 7.2 C 82 % 4.34 C
1149 27-01-2022 23:40:00 7.2 C 82 % 4.34 C
1150 27-01-2022 23:45:00 7.1 C 82 % 4.24 C
Sensor: Nr:Datum:Temp:Feuchte:Taupunkt:
Aussen-T/F 1151 27-01-2022 23:50:00 7.1 C 82 % 4.24 C
1152 27-01-2022 23:55:00 7.1 C 82 % 4.24 C
1153 28-01-2022 00:00:00 7.1 C 82 % 4.24 C
1154 28-01-2022 00:05:00 7.1 C 81 % 4.07 C
1155 28-01-2022 00:10:00 7.1 C 81 % 4.07 C
1156 28-01-2022 00:15:00 7.1 C 81 % 4.07 C
1157 28-01-2022 00:20:00 7 C 81 % 3.97 C
1158 28-01-2022 00:25:00 7.1 C 81 % 4.07 C
1159 28-01-2022 00:30:00 7 C 81 % 3.97 C
1160 28-01-2022 00:35:00 7 C 81 % 3.97 C
1161 28-01-2022 00:40:00 6.9 C 81 % 3.87 C
1162 28-01-2022 00:45:00 7 C 81 % 3.97 C
1163 28-01-2022 00:50:00 7 C 80 % 3.79 C
1164 28-01-2022 00:55:00 7 C 80 % 3.79 C
1165 28-01-2022 01:00:00 6.9 C 80 % 3.7 C
1166 28-01-2022 01:05:00 6.9 C 80 % 3.7 C
1167 28-01-2022 01:10:00 6.9 C 80 % 3.7 C
1168 28-01-2022 01:15:00 6.8 C 80 % 3.6 C
1169 28-01-2022 01:20:00 6.8 C 80 % 3.6 C
1170 28-01-2022 01:25:00 6.7 C 81 % 3.68 C
1171 28-01-2022 01:30:00 6.7 C 81 % 3.68 C
1172 28-01-2022 01:35:00 6.7 C 81 % 3.68 C
1173 28-01-2022 01:40:00 6.7 C 81 % 3.68 C
1174 28-01-2022 01:45:00 6.7 C 83 % 4.02 C
1175 28-01-2022 01:50:00 6.4 C 85 % 4.07 C
Sensor: Nr:Datum:Temp:Feuchte:Taupunkt:
Aussen-T/F 1176 28-01-2022 01:55:00 6.2 C 87 % 4.2 C
1177 28-01-2022 02:00:00 6 C 88 % 4.17 C
1178 28-01-2022 02:05:00 5.8 C 89 % 4.13 C
1179 28-01-2022 02:10:00 5.6 C 89 % 3.93 C
1180 28-01-2022 02:15:00 5.3 C 89 % 3.64 C
1181 28-01-2022 02:20:00 5.1 C 90 % 3.6 C
1182 28-01-2022 02:25:00 4.9 C 91 % 3.56 C
1183 28-01-2022 02:30:00 4.8 C 92 % 3.61 C
1184 28-01-2022 02:35:00 4.8 C 92 % 3.61 C
1185 28-01-2022 02:40:00 4.7 C 92 % 3.51 C
1186 28-01-2022 02:45:00 4.7 C 93 % 3.67 C
1187 28-01-2022 02:50:00 4.8 C 93 % 3.77 C
1188 28-01-2022 02:55:00 4.8 C 92 % 3.61 C
1189 28-01-2022 03:00:00 4.9 C 92 % 3.71 C
1190 28-01-2022 03:05:00 5.1 C 92 % 3.91 C
1191 28-01-2022 03:10:00 5.2 C 91 % 3.85 C
1192 28-01-2022 03:15:00 5.2 C 90 % 3.7 C
1193 28-01-2022 03:20:00 5.3 C 90 % 3.8 C
1194 28-01-2022 03:25:00 5.3 C 89 % 3.64 C
1195 28-01-2022 03:30:00 5.4 C 88 % 3.58 C
1196 28-01-2022 03:35:00 5.4 C 88 % 3.58 C
1197 28-01-2022 03:40:00 5.6 C 88 % 3.77 C
1198 28-01-2022 03:45:00 5.6 C 87 % 3.61 C
1199 28-01-2022 03:50:00 5.6 C 87 % 3.61 C
1200 28-01-2022 03:55:00 5.7 C 87 % 3.71 C
Sensor: Nr:Datum:Temp:Feuchte:Taupunkt:
Aussen-T/F 1201 28-01-2022 04:00:00 5.6 C 87 % 3.61 C
1202 28-01-2022 04:05:00 5.6 C 87 % 3.61 C
1203 28-01-2022 04:10:00 5.6 C 87 % 3.61 C
1204 28-01-2022 04:15:00 5.5 C 87 % 3.51 C
1205 28-01-2022 04:20:00 5.4 C 87 % 3.41 C
1206 28-01-2022 04:25:00 5.4 C 86 % 3.25 C
1207 28-01-2022 04:30:00 5.4 C 86 % 3.25 C
1208 28-01-2022 04:35:00 5.3 C 86 % 3.15 C
1209 28-01-2022 04:40:00 5.2 C 86 % 3.05 C
1210 28-01-2022 04:45:00 5.2 C 86 % 3.05 C
1211 28-01-2022 04:50:00 5.1 C 86 % 2.96 C
1212 28-01-2022 04:55:00 4.9 C 86 % 2.76 C
1213 28-01-2022 05:00:00 4.8 C 86 % 2.66 C
1214 28-01-2022 05:05:00 4.7 C 87 % 2.73 C
1215 28-01-2022 05:10:00 4.6 C 87 % 2.63 C
1216 28-01-2022 05:15:00 4.6 C 87 % 2.63 C
1217 28-01-2022 05:20:00 4.6 C 88 % 2.79 C
1218 28-01-2022 05:25:00 4.5 C 88 % 2.69 C
1219 28-01-2022 05:30:00 4.4 C 88 % 2.59 C
1220 28-01-2022 05:35:00 4.4 C 88 % 2.59 C
1221 28-01-2022 05:40:00 4.5 C 88 % 2.69 C
1222 28-01-2022 05:45:00 4.6 C 88 % 2.79 C
1223 28-01-2022 05:50:00 4.7 C 87 % 2.73 C
1224 28-01-2022 05:55:00 4.8 C 87 % 2.82 C
1225 28-01-2022 06:00:00 4.8 C 87 % 2.82 C
Sensor: Nr:Datum:Temp:Feuchte:Taupunkt:
Aussen-T/F 1226 28-01-2022 06:05:00 4.8 C 87 % 2.82 C
1227 28-01-2022 06:10:00 4.8 C 87 % 2.82 C
1228 28-01-2022 06:15:00 4.8 C 88 % 2.99 C
1229 28-01-2022 06:20:00 4.9 C 87 % 2.92 C
1230 28-01-2022 06:25:00 4.9 C 87 % 2.92 C
1231 28-01-2022 06:30:00 4.9 C 87 % 2.92 C
1232 28-01-2022 06:35:00 4.9 C 87 % 2.92 C
1233 28-01-2022 06:40:00 4.8 C 87 % 2.82 C
1234 28-01-2022 06:45:00 4.8 C 88 % 2.99 C
1235 28-01-2022 06:50:00 4.7 C 88 % 2.89 C
1236 28-01-2022 06:55:00 4.7 C 88 % 2.89 C
1237 28-01-2022 07:00:00 4.7 C 88 % 2.89 C
1238 28-01-2022 07:05:00 4.6 C 88 % 2.79 C
1239 28-01-2022 07:10:00 4.6 C 88 % 2.79 C
1240 28-01-2022 07:15:00 4.4 C 89 % 2.75 C
1241 28-01-2022 07:20:00 4.4 C 89 % 2.75 C
1242 28-01-2022 07:25:00 4.3 C 89 % 2.65 C
1243 28-01-2022 07:30:00 4.3 C 89 % 2.65 C
1244 28-01-2022 07:35:00 4.2 C 89 % 2.55 C
1245 28-01-2022 07:40:00 4.1 C 89 % 2.45 C
1246 28-01-2022 07:45:00 4.1 C 90 % 2.61 C
1247 28-01-2022 07:50:00 4.2 C 90 % 2.71 C
1248 28-01-2022 07:55:00 4.4 C 90 % 2.91 C
1249 28-01-2022 08:00:00 4.6 C 90 % 3.1 C
1250 28-01-2022 08:05:00 4.7 C 89 % 3.05 C
Sensor: Nr:Datum:Temp:Feuchte:Taupunkt:
Aussen-T/F 1251 28-01-2022 08:10:00 4.7 C 89 % 3.05 C
1252 28-01-2022 08:15:00 4.8 C 89 % 3.14 C
1253 28-01-2022 08:20:00 4.9 C 89 % 3.24 C
1254 28-01-2022 08:25:00 4.9 C 88 % 3.08 C
1255 28-01-2022 08:30:00 5 C 88 % 3.18 C
1256 28-01-2022 08:35:00 5.1 C 88 % 3.28 C
1257 28-01-2022 08:40:00 5.1 C 87 % 3.12 C
1258 28-01-2022 08:45:00 5.1 C 87 % 3.12 C
1259 28-01-2022 08:50:00 5.1 C 88 % 3.28 C
1260 28-01-2022 08:55:00 5.2 C 88 % 3.38 C
1261 28-01-2022 09:00:00 5.2 C 87 % 3.22 C
1262 28-01-2022 09:05:00 5.2 C 87 % 3.22 C
1263 28-01-2022 09:10:00 5.2 C 87 % 3.22 C
1264 28-01-2022 09:15:00 5.2 C 87 % 3.22 C
1265 28-01-2022 09:20:00 5.2 C 87 % 3.22 C
1266 28-01-2022 09:25:00 5.1 C 87 % 3.12 C
1267 28-01-2022 09:30:00 5.1 C 88 % 3.28 C
1268 28-01-2022 09:35:00 5.2 C 87 % 3.22 C
1269 28-01-2022 09:40:00 5.2 C 87 % 3.22 C
1270 28-01-2022 09:45:00 5.2 C 87 % 3.22 C
1271 28-01-2022 09:50:00 5.3 C 87 % 3.32 C
1272 28-01-2022 09:55:00 5.3 C 87 % 3.32 C
1273 28-01-2022 10:00:00 5.3 C 87 % 3.32 C
1274 28-01-2022 10:05:00 5.3 C 87 % 3.32 C
1275 28-01-2022 10:10:00 5.3 C 87 % 3.32 C
Sensor: Nr:Datum:Temp:Feuchte:Taupunkt:
Aussen-T/F 1276 28-01-2022 10:15:00 5.4 C 87 % 3.41 C
1277 28-01-2022 10:20:00 5.5 C 87 % 3.51 C
1278 28-01-2022 10:25:00 5.6 C 86 % 3.45 C
1279 28-01-2022 10:30:00 5.7 C 87 % 3.71 C
1280 28-01-2022 10:35:00 5.7 C 86 % 3.55 C
1281 28-01-2022 10:40:00 5.8 C 86 % 3.64 C
1282 28-01-2022 10:45:00 5.9 C 86 % 3.74 C
1283 28-01-2022 10:50:00 6 C 86 % 3.84 C
1284 28-01-2022 10:55:00 6.1 C 85 % 3.77 C
1285 28-01-2022 11:00:00 6.1 C 85 % 3.77 C
1286 28-01-2022 11:05:00 6.2 C 85 % 3.87 C
1287 28-01-2022 11:10:00 6.2 C 85 % 3.87 C
1288 28-01-2022 11:15:00 6.3 C 84 % 3.8 C
1289 28-01-2022 11:20:00 6.3 C 83 % 3.63 C
1290 28-01-2022 11:25:00 6.3 C 83 % 3.63 C
1291 28-01-2022 11:30:00 6.4 C 83 % 3.73 C
1292 28-01-2022 11:35:00 6.4 C 83 % 3.73 C
1293 28-01-2022 11:40:00 6.5 C 82 % 3.66 C
1294 28-01-2022 11:45:00 6.6 C 81 % 3.58 C
1295 28-01-2022 11:50:00 6.6 C 81 % 3.58 C
1296 28-01-2022 11:55:00 6.6 C 81 % 3.58 C
1297 28-01-2022 12:00:00 6.5 C 80 % 3.31 C
1298 28-01-2022 12:05:00 6.6 C 79 % 3.23 C
1299 28-01-2022 12:10:00 6.6 C 80 % 3.4 C
1300 28-01-2022 12:15:00 6.6 C 79 % 3.23 C
Sensor: Nr:Datum:Temp:Feuchte:Taupunkt:
Aussen-T/F 1301 28-01-2022 12:20:00 6.6 C 79 % 3.23 C
1302 28-01-2022 12:25:00 6.7 C 79 % 3.32 C
1303 28-01-2022 12:30:00 6.7 C 79 % 3.32 C
1304 28-01-2022 12:35:00 6.8 C 77 % 3.06 C
1305 28-01-2022 12:40:00 6.9 C 75 % 2.78 C
1306 28-01-2022 12:45:00 6.9 C 75 % 2.78 C
1307 28-01-2022 12:50:00 7.1 C 74 % 2.79 C
1308 28-01-2022 12:55:00 7.1 C 74 % 2.79 C
1309 28-01-2022 13:00:00 7.1 C 74 % 2.79 C
1310 28-01-2022 13:05:00 7.1 C 75 % 2.98 C
1311 28-01-2022 13:10:00 7.1 C 76 % 3.16 C
1312 28-01-2022 13:15:00 7 C 75 % 2.88 C
1313 28-01-2022 13:20:00 6.9 C 74 % 2.6 C
1314 28-01-2022 13:25:00 6.8 C 75 % 2.69 C
1315 28-01-2022 13:30:00 6.8 C 75 % 2.69 C
1316 28-01-2022 13:35:00 6.7 C 76 % 2.78 C
1317 28-01-2022 13:40:00 6.7 C 77 % 2.96 C
1318 28-01-2022 13:45:00 6.6 C 77 % 2.86 C
1319 28-01-2022 13:50:00 6.7 C 76 % 2.78 C
1320 28-01-2022 13:55:00 6.9 C 76 % 2.97 C
1321 28-01-2022 14:00:00 7.1 C 75 % 2.98 C
1322 28-01-2022 14:05:00 7.2 C 73 % 2.69 C
1323 28-01-2022 14:10:00 7.3 C 71 % 2.4 C
1324 28-01-2022 14:15:00 7.3 C 70 % 2.2 C
1325 28-01-2022 14:20:00 7.3 C 70 % 2.2 C
Sensor: Nr:Datum:Temp:Feuchte:Taupunkt:
Aussen-T/F 1326 28-01-2022 14:25:00 7.4 C 71 % 2.5 C
1327 28-01-2022 14:30:00 7.5 C 70 % 2.39 C
1328 28-01-2022 14:35:00 7.6 C 70 % 2.49 C
1329 28-01-2022 14:40:00 7.7 C 70 % 2.58 C
1330 28-01-2022 14:45:00 7.8 C 70 % 2.68 C
1331 28-01-2022 14:50:00 7.7 C 70 % 2.58 C
1332 28-01-2022 14:55:00 7.6 C 71 % 2.69 C
1333 28-01-2022 15:00:00 7.6 C 71 % 2.69 C
1334 28-01-2022 15:05:00 7.5 C 71 % 2.59 C
1335 28-01-2022 15:10:00 7.5 C 71 % 2.59 C
1336 28-01-2022 15:15:00 7.4 C 72 % 2.69 C
1337 28-01-2022 15:20:00 7.5 C 72 % 2.79 C
1338 28-01-2022 15:25:00 7.4 C 71 % 2.5 C
1339 28-01-2022 15:30:00 7.4 C 72 % 2.69 C
1340 28-01-2022 15:35:00 7.4 C 72 % 2.69 C
1341 28-01-2022 15:40:00 7.4 C 72 % 2.69 C
1342 28-01-2022 15:45:00 7.3 C 71 % 2.4 C
1343 28-01-2022 15:50:00 7.3 C 71 % 2.4 C
1344 28-01-2022 15:55:00 7.3 C 72 % 2.6 C
1345 28-01-2022 16:00:00 7.2 C 72 % 2.5 C
1346 28-01-2022 16:05:00 7.2 C 72 % 2.5 C
1347 28-01-2022 16:10:00 7.2 C 73 % 2.69 C
1348 28-01-2022 16:15:00 7.1 C 74 % 2.79 C
1349 28-01-2022 16:20:00 7 C 75 % 2.88 C
1350 28-01-2022 16:25:00 6.8 C 76 % 2.87 C
Sensor: Nr:Datum:Temp:Feuchte:Taupunkt:
Aussen-T/F 1351 28-01-2022 16:30:00 6.6 C 76 % 2.68 C
1352 28-01-2022 16:35:00 6.2 C 78 % 2.66 C
1353 28-01-2022 16:40:00 5.9 C 79 % 2.54 C
1354 28-01-2022 16:45:00 5.6 C 79 % 2.25 C
1355 28-01-2022 16:50:00 5.3 C 81 % 2.31 C
1356 28-01-2022 16:55:00 5 C 82 % 2.19 C
1357 28-01-2022 17:00:00 4.8 C 83 % 2.16 C
1358 28-01-2022 17:05:00 4.6 C 84 % 2.14 C
1359 28-01-2022 17:10:00 4.3 C 84 % 1.84 C
1360 28-01-2022 17:15:00 4.2 C 85 % 1.91 C
1361 28-01-2022 17:20:00 4.1 C 85 % 1.81 C
1362 28-01-2022 17:25:00 3.9 C 86 % 1.78 C
1363 28-01-2022 17:30:00 3.8 C 87 % 1.84 C
1364 28-01-2022 17:35:00 3.7 C 87 % 1.74 C
1365 28-01-2022 17:40:00 3.6 C 87 % 1.64 C
1366 28-01-2022 17:45:00 3.5 C 88 % 1.7 C
1367 28-01-2022 17:50:00 3.4 C 88 % 1.61 C
1368 28-01-2022 17:55:00 3.3 C 88 % 1.51 C
1369 28-01-2022 18:00:00 3.2 C 89 % 1.57 C
1370 28-01-2022 18:05:00 3.2 C 89 % 1.57 C
1371 28-01-2022 18:10:00 3.2 C 90 % 1.72 C
1372 28-01-2022 18:15:00 3.2 C 90 % 1.72 C
1373 28-01-2022 18:20:00 3.2 C 90 % 1.72 C
1374 28-01-2022 18:25:00 3.2 C 90 % 1.72 C
1375 28-01-2022 18:30:00 3.1 C 90 % 1.62 C
Sensor: Nr:Datum:Temp:Feuchte:Taupunkt:
Aussen-T/F 1376 28-01-2022 18:35:00 3.1 C 91 % 1.78 C
1377 28-01-2022 18:40:00 3.1 C 91 % 1.78 C
1378 28-01-2022 18:45:00 3.1 C 91 % 1.78 C
1379 28-01-2022 18:50:00 3.3 C 91 % 1.98 C
1380 28-01-2022 18:55:00 3.4 C 91 % 2.07 C
1381 28-01-2022 19:00:00 3.5 C 90 % 2.02 C
1382 28-01-2022 19:05:00 3.6 C 90 % 2.12 C
1383 28-01-2022 19:10:00 3.6 C 90 % 2.12 C
1384 28-01-2022 19:15:00 3.7 C 90 % 2.22 C
1385 28-01-2022 19:20:00 3.7 C 90 % 2.22 C
1386 28-01-2022 19:25:00 3.7 C 90 % 2.22 C
1387 28-01-2022 19:30:00 3.8 C 90 % 2.31 C
1388 28-01-2022 19:35:00 3.8 C 91 % 2.47 C
1389 28-01-2022 19:40:00 3.8 C 91 % 2.47 C
1390 28-01-2022 19:45:00 3.9 C 91 % 2.57 C
1391 28-01-2022 19:50:00 4.1 C 91 % 2.77 C
1392 28-01-2022 19:55:00 4.1 C 91 % 2.77 C
1393 28-01-2022 20:00:00 4.2 C 91 % 2.87 C
1394 28-01-2022 20:05:00 4.3 C 91 % 2.96 C
1395 28-01-2022 20:10:00 4.4 C 91 % 3.06 C
1396 28-01-2022 20:15:00 4.4 C 91 % 3.06 C
1397 28-01-2022 20:20:00 4.5 C 91 % 3.16 C
1398 28-01-2022 20:25:00 4.6 C 91 % 3.26 C
1399 28-01-2022 20:30:00 4.7 C 91 % 3.36 C
1400 28-01-2022 20:35:00 4.7 C 90 % 3.2 C
Sensor: Nr:Datum:Temp:Feuchte:Taupunkt:
Aussen-T/F 1401 28-01-2022 20:40:00 4.7 C 90 % 3.2 C
1402 28-01-2022 20:45:00 4.8 C 91 % 3.46 C
1403 28-01-2022 20:50:00 4.9 C 90 % 3.4 C
1404 28-01-2022 20:55:00 5.1 C 90 % 3.6 C
1405 28-01-2022 21:00:00 5.1 C 89 % 3.44 C
1406 28-01-2022 21:05:00 5.2 C 89 % 3.54 C
1407 28-01-2022 21:10:00 5.2 C 89 % 3.54 C
1408 28-01-2022 21:15:00 5.2 C 88 % 3.38 C
1409 28-01-2022 21:20:00 5.2 C 88 % 3.38 C
1410 28-01-2022 21:25:00 5.3 C 88 % 3.48 C
1411 28-01-2022 21:30:00 5.3 C 87 % 3.32 C
1412 28-01-2022 21:35:00 5.3 C 87 % 3.32 C
1413 28-01-2022 21:40:00 5.3 C 87 % 3.32 C
1414 28-01-2022 21:45:00 5.3 C 87 % 3.32 C
1415 28-01-2022 21:50:00 5.4 C 87 % 3.41 C
1416 28-01-2022 21:55:00 5.4 C 87 % 3.41 C
1417 28-01-2022 22:00:00 5.4 C 87 % 3.41 C
1418 28-01-2022 22:05:00 5.3 C 87 % 3.32 C
1419 28-01-2022 22:10:00 5.4 C 87 % 3.41 C
1420 28-01-2022 22:15:00 5.4 C 87 % 3.41 C
1421 28-01-2022 22:20:00 5.4 C 87 % 3.41 C
1422 28-01-2022 22:25:00 5.5 C 87 % 3.51 C
1423 28-01-2022 22:30:00 5.5 C 87 % 3.51 C
1424 28-01-2022 22:35:00 5.6 C 87 % 3.61 C
1425 28-01-2022 22:40:00 5.6 C 87 % 3.61 C
Sensor: Nr:Datum:Temp:Feuchte:Taupunkt:
Aussen-T/F 1426 28-01-2022 22:45:00 5.5 C 87 % 3.51 C
1427 28-01-2022 22:50:00 5.5 C 87 % 3.51 C
1428 28-01-2022 22:55:00 5.4 C 87 % 3.41 C
1429 28-01-2022 23:00:00 5.4 C 87 % 3.41 C
1430 28-01-2022 23:05:00 5.4 C 87 % 3.41 C
1431 28-01-2022 23:10:00 5.4 C 87 % 3.41 C
1432 28-01-2022 23:15:00 5.4 C 87 % 3.41 C
1433 28-01-2022 23:20:00 5.4 C 87 % 3.41 C
1434 28-01-2022 23:25:00 5.4 C 87 % 3.41 C
1435 28-01-2022 23:30:00 5.4 C 88 % 3.58 C
1436 28-01-2022 23:35:00 5.4 C 88 % 3.58 C
1437 28-01-2022 23:40:00 5.4 C 88 % 3.58 C
1438 28-01-2022 23:45:00 5.4 C 88 % 3.58 C
1439 28-01-2022 23:50:00 5.4 C 88 % 3.58 C
1440 28-01-2022 23:55:00 5.4 C 88 % 3.58 C
1441 29-01-2022 00:00:00 5.4 C 88 % 3.58 C
1442 29-01-2022 00:05:00 5.4 C 88 % 3.58 C
1443 29-01-2022 00:10:00 5.4 C 88 % 3.58 C
1444 29-01-2022 00:15:00 5.4 C 88 % 3.58 C
1445 29-01-2022 00:20:00 5.4 C 88 % 3.58 C
1446 29-01-2022 00:25:00 5.4 C 88 % 3.58 C
1447 29-01-2022 00:30:00 5.5 C 88 % 3.67 C
1448 29-01-2022 00:35:00 5.5 C 88 % 3.67 C
1449 29-01-2022 00:40:00 5.5 C 88 % 3.67 C
1450 29-01-2022 00:45:00 5.5 C 88 % 3.67 C
Sensor: Nr:Datum:Temp:Feuchte:Taupunkt:
Aussen-T/F 1451 29-01-2022 00:50:00 5.5 C 88 % 3.67 C
1452 29-01-2022 00:55:00 5.4 C 88 % 3.58 C
1453 29-01-2022 01:00:00 5.4 C 88 % 3.58 C
1454 29-01-2022 01:05:00 5.4 C 88 % 3.58 C
1455 29-01-2022 01:10:00 5.4 C 88 % 3.58 C
1456 29-01-2022 01:15:00 5.4 C 88 % 3.58 C
1457 29-01-2022 01:20:00 5.3 C 88 % 3.48 C
1458 29-01-2022 01:25:00 5.3 C 88 % 3.48 C
1459 29-01-2022 01:30:00 5.3 C 88 % 3.48 C
1460 29-01-2022 01:35:00 5.3 C 88 % 3.48 C
1461 29-01-2022 01:40:00 5.3 C 88 % 3.48 C
1462 29-01-2022 01:45:00 5.3 C 88 % 3.48 C
1463 29-01-2022 01:50:00 5.3 C 88 % 3.48 C
1464 29-01-2022 01:55:00 5.3 C 88 % 3.48 C
1465 29-01-2022 02:00:00 5.3 C 89 % 3.64 C
1466 29-01-2022 02:05:00 5.3 C 88 % 3.48 C
1467 29-01-2022 02:10:00 5.3 C 88 % 3.48 C
1468 29-01-2022 02:15:00 5.3 C 88 % 3.48 C
1469 29-01-2022 02:20:00 5.3 C 89 % 3.64 C
1470 29-01-2022 02:25:00 5.2 C 89 % 3.54 C
1471 29-01-2022 02:30:00 5.2 C 89 % 3.54 C
1472 29-01-2022 02:35:00 5.2 C 89 % 3.54 C
1473 29-01-2022 02:40:00 5.2 C 89 % 3.54 C
1474 29-01-2022 02:45:00 5.2 C 89 % 3.54 C
1475 29-01-2022 02:50:00 5.2 C 89 % 3.54 C
Sensor: Nr:Datum:Temp:Feuchte:Taupunkt:
Aussen-T/F 1476 29-01-2022 02:55:00 5.1 C 89 % 3.44 C
1477 29-01-2022 03:00:00 5.1 C 89 % 3.44 C
1478 29-01-2022 03:05:00 5.1 C 90 % 3.6 C
1479 29-01-2022 03:10:00 5 C 90 % 3.5 C
1480 29-01-2022 03:15:00 5 C 90 % 3.5 C
1481 29-01-2022 03:20:00 4.9 C 90 % 3.4 C
1482 29-01-2022 03:25:00 4.9 C 91 % 3.56 C
1483 29-01-2022 03:30:00 4.9 C 91 % 3.56 C
1484 29-01-2022 03:35:00 4.8 C 91 % 3.46 C
1485 29-01-2022 03:40:00 4.8 C 91 % 3.46 C
1486 29-01-2022 03:45:00 4.8 C 91 % 3.46 C
1487 29-01-2022 03:50:00 4.8 C 91 % 3.46 C
1488 29-01-2022 03:55:00 4.8 C 91 % 3.46 C
1489 29-01-2022 04:00:00 4.8 C 91 % 3.46 C
1490 29-01-2022 04:05:00 4.8 C 91 % 3.46 C
1491 29-01-2022 04:10:00 4.8 C 91 % 3.46 C
1492 29-01-2022 04:15:00 4.8 C 91 % 3.46 C
1493 29-01-2022 04:20:00 4.8 C 91 % 3.46 C
1494 29-01-2022 04:25:00 4.8 C 91 % 3.46 C
1495 29-01-2022 04:30:00 4.8 C 91 % 3.46 C
1496 29-01-2022 04:35:00 4.8 C 91 % 3.46 C
1497 29-01-2022 04:40:00 4.9 C 91 % 3.56 C
1498 29-01-2022 04:45:00 4.9 C 91 % 3.56 C
1499 29-01-2022 04:50:00 4.9 C 90 % 3.4 C
1500 29-01-2022 04:55:00 4.9 C 90 % 3.4 C
Sensor: Nr:Datum:Temp:Feuchte:Taupunkt:
Aussen-T/F 1501 29-01-2022 05:00:00 4.9 C 90 % 3.4 C
1502 29-01-2022 05:05:00 5 C 90 % 3.5 C
1503 29-01-2022 05:10:00 5 C 90 % 3.5 C
1504 29-01-2022 05:15:00 5 C 90 % 3.5 C
1505 29-01-2022 05:20:00 5 C 90 % 3.5 C
1506 29-01-2022 05:25:00 4.9 C 91 % 3.56 C
1507 29-01-2022 05:30:00 5 C 91 % 3.66 C

Legende:
   Min
   Max


Maximal/Minimal-Werte vom 24.01.2022 - 29.01.2022

Sensor Min Max Avg
Temp
(Aussen-T/F)
-0.4 °C
24-01-2022  08:00:00
7.8 °C
28-01-2022  14:45:00
3.37 °C
Feuchte
(Aussen-T/F)
70 %
28-01-2022  14:15:00
96 %
24-01-2022  09:05:00
89.98 %
Taupunkt
(Aussen-T/F)
-1.25 C
24-01-2022  08:05:00
4.41 C
27-01-2022  23:30:00
1.86 C

Die Daten stammen von einer Davis Vantage Pro 2 Wetter-Station und werden unter Linux mit der Software wview2wettercgi und aufbereitet. Alle Angaben erfolgen ohne Gewähr für ihre Vollständigkeit oder Richtigkeit.
Kontakt: Rainer Krienke krienke@uni-koblenz.de . Meine Webseiten an der Uni Koblenz oder privat.
Version: $Revision: 0.78 $